<?xml version='1.0' encoding='UTF-8'?><gpx version="1.1" creator="JPX - https://github.com/jenetics/jpx" xmlns="http://www.topografix.com/GPX/1/1"><trk><trkseg><trkpt lat="44.111765407720256" lon="9.90001115118769"><ele>127.0</ele><time>2026-03-23T14:45:19.004Z</time></trkpt><trkpt lat="44.111769124587866" lon="9.899885595861239"><ele>126.99999999999999</ele><time>2026-03-23T14:45:21.004Z</time></trkpt><trkpt lat="44.11176242021321" lon="9.899762357980077"><ele>126.99999999999999</ele><time>2026-03-23T14:45:23.004Z</time></trkpt><trkpt lat="44.11176206047531" lon="9.899640714681611"><ele>127.0</ele><time>2026-03-23T14:45:25.004Z</time></trkpt><trkpt lat="44.111758698143575" lon="9.899499099195708"><ele>127.0</ele><time>2026-03-23T14:45:27.004Z</time></trkpt><trkpt lat="44.11175518101594" lon="9.899359414533665"><ele>126.8</ele><time>2026-03-23T14:45:29.004Z</time></trkpt><trkpt lat="44.11174021745521" lon="9.899210866174663"><ele>126.6</ele><time>2026-03-23T14:45:31.004Z</time></trkpt><trkpt lat="44.111741092362145" lon="9.899065060847601"><ele>126.39999999999999</ele><time>2026-03-23T14:45:33.004Z</time></trkpt><trkpt lat="44.111747192977695" lon="9.898938872234678"><ele>126.19999999999999</ele><time>2026-03-23T14:45:35.004Z</time></trkpt><trkpt lat="44.11168493965196" lon="9.898856503851032"><ele>126.0</ele><time>2026-03-23T14:45:37.004Z</time></trkpt><trkpt lat="44.11157592841305" lon="9.898813021993016"><ele>124.4</ele><time>2026-03-23T14:45:39.004Z</time></trkpt><trkpt lat="44.111513070856326" lon="9.898683333822984"><ele>122.8</ele><time>2026-03-23T14:45:41.004Z</time></trkpt><trkpt lat="44.11149273081389" lon="9.898506461015698"><ele>121.20000000000002</ele><time>2026-03-23T14:45:43.004Z</time></trkpt><trkpt lat="44.11148004674317" lon="9.89841312400017"><ele>119.60000000000001</ele><time>2026-03-23T14:45:44.004Z</time></trkpt><trkpt lat="44.11146550504144" lon="9.89831784305898"><ele>118.0</ele><time>2026-03-23T14:45:45.004Z</time></trkpt><trkpt lat="44.111425579781454" lon="9.898227369615812"><ele>118.00000000000001</ele><time>2026-03-23T14:45:46.004Z</time></trkpt><trkpt lat="44.11140352416413" lon="9.898128055733528"><ele>118.0</ele><time>2026-03-23T14:45:47.004Z</time></trkpt><trkpt lat="44.11135416735547" lon="9.898046779416449"><ele>118.0</ele><time>2026-03-23T14:45:48.004Z</time></trkpt><trkpt lat="44.11128156090016" lon="9.897980235896641"><ele>118.0</ele><time>2026-03-23T14:45:49.004Z</time></trkpt><trkpt lat="44.11118898194156" lon="9.897982083413247"><ele>118.00000000000001</ele><time>2026-03-23T14:45:50.004Z</time></trkpt><trkpt lat="44.111109919746454" lon="9.897991029425436"><ele>118.0</ele><time>2026-03-23T14:45:51.004Z</time></trkpt><trkpt lat="44.111036758502095" lon="9.898003902403653"><ele>118.00000000000001</ele><time>2026-03-23T14:45:52.004Z</time></trkpt><trkpt lat="44.110968154471145" lon="9.898021271560717"><ele>118.0</ele><time>2026-03-23T14:45:53.004Z</time></trkpt><trkpt lat="44.11088999703833" lon="9.898049115288945"><ele>118.0</ele><time>2026-03-23T14:45:54.004Z</time></trkpt><trkpt lat="44.11081020090767" lon="9.898072676264581"><ele>118.0</ele><time>2026-03-23T14:45:55.004Z</time></trkpt><trkpt lat="44.11072933443304" lon="9.898091466177583"><ele>118.00000000000001</ele><time>2026-03-23T14:45:56.004Z</time></trkpt><trkpt lat="44.110649479705046" lon="9.898114422896846"><ele>118.0</ele><time>2026-03-23T14:45:57.004Z</time></trkpt><trkpt lat="44.11056942555431" lon="9.89813438390069"><ele>118.33333333333334</ele><time>2026-03-23T14:45:58.004Z</time></trkpt><trkpt lat="44.11048882996831" lon="9.89815917003377"><ele>118.66666666666667</ele><time>2026-03-23T14:45:59.004Z</time></trkpt><trkpt lat="44.1104113720065" lon="9.898182088825195"><ele>119.0</ele><time>2026-03-23T14:46:00.004Z</time></trkpt><trkpt lat="44.11033292735656" lon="9.898204331282836"><ele>119.33333333333334</ele><time>2026-03-23T14:46:01.004Z</time></trkpt><trkpt lat="44.110252180754074" lon="9.898225347655078"><ele>119.66666666666667</ele><time>2026-03-23T14:46:02.005Z</time></trkpt><trkpt lat="44.1101751773359" lon="9.898248733452897"><ele>120.0</ele><time>2026-03-23T14:46:03.005Z</time></trkpt><trkpt lat="44.110097608525074" lon="9.898285617927344"><ele>120.0</ele><time>2026-03-23T14:46:04.005Z</time></trkpt><trkpt lat="44.110025027672926" lon="9.898324368219821"><ele>120.0</ele><time>2026-03-23T14:46:05.005Z</time></trkpt><trkpt lat="44.10995914286664" lon="9.89837618707826"><ele>120.0</ele><time>2026-03-23T14:46:06.005Z</time></trkpt><trkpt lat="44.10989455314115" lon="9.898435525343212"><ele>120.0</ele><time>2026-03-23T14:46:07.004Z</time></trkpt><trkpt lat="44.109836157556664" lon="9.898504105099223"><ele>120.0</ele><time>2026-03-23T14:46:08.004Z</time></trkpt><trkpt lat="44.109780689135725" lon="9.89857689287973"><ele>120.0</ele><time>2026-03-23T14:46:09.004Z</time></trkpt><trkpt lat="44.10972866925055" lon="9.898651275634922"><ele>116.5</ele><time>2026-03-23T14:46:10.004Z</time></trkpt><trkpt lat="44.10967265537457" lon="9.898732901811185"><ele>113.0</ele><time>2026-03-23T14:46:11.004Z</time></trkpt><trkpt lat="44.10961789513188" lon="9.898810480981881"><ele>109.5</ele><time>2026-03-23T14:46:12.003Z</time></trkpt><trkpt lat="44.109557488554515" lon="9.898881971188631"><ele>106.0</ele><time>2026-03-23T14:46:13.003Z</time></trkpt><trkpt lat="44.1094818787989" lon="9.89891545868249"><ele>102.5</ele><time>2026-03-23T14:46:14.003Z</time></trkpt><trkpt lat="44.10939502048773" lon="9.898876859856177"><ele>99.0</ele><time>2026-03-23T14:46:15.003Z</time></trkpt><trkpt lat="44.10932261517361" lon="9.898805891523486"><ele>99.0</ele><time>2026-03-23T14:46:16.003Z</time></trkpt><trkpt lat="44.109265361678546" lon="9.898727862798484"><ele>99.0</ele><time>2026-03-23T14:46:17.003Z</time></trkpt><trkpt lat="44.10921343453747" lon="9.898644849116172"><ele>99.0</ele><time>2026-03-23T14:46:18.002Z</time></trkpt><trkpt lat="44.109158098746896" lon="9.898563406861097"><ele>99.0</ele><time>2026-03-23T14:46:19.002Z</time></trkpt><trkpt lat="44.10910568926649" lon="9.898475545962233"><ele>99.0</ele><time>2026-03-23T14:46:20.002Z</time></trkpt><trkpt lat="44.10905823163746" lon="9.89838158307075"><ele>99.0</ele><time>2026-03-23T14:46:21.002Z</time></trkpt><trkpt lat="44.10901693727026" lon="9.898277185222105"><ele>99.66666666666667</ele><time>2026-03-23T14:46:22.002Z</time></trkpt><trkpt lat="44.108953556864975" lon="9.89819792504471"><ele>100.33333333333334</ele><time>2026-03-23T14:46:23.002Z</time></trkpt><trkpt lat="44.108896007772046" lon="9.898113271869947"><ele>101.0</ele><time>2026-03-23T14:46:24.002Z</time></trkpt><trkpt lat="44.10883082236597" lon="9.898050693898018"><ele>101.66666666666667</ele><time>2026-03-23T14:46:25.002Z</time></trkpt><trkpt lat="44.10874905718001" lon="9.898012433781727"><ele>102.33333333333334</ele><time>2026-03-23T14:46:26.002Z</time></trkpt><trkpt lat="44.108668523264214" lon="9.897983575400087"><ele>103.0</ele><time>2026-03-23T14:46:27.001Z</time></trkpt><trkpt lat="44.108586402693064" lon="9.897959687256403"><ele>103.00000000000001</ele><time>2026-03-23T14:46:28.001Z</time></trkpt><trkpt lat="44.10850746662575" lon="9.89793493572166"><ele>103.0</ele><time>2026-03-23T14:46:29.001Z</time></trkpt><trkpt lat="44.10842842110306" lon="9.897902938862385"><ele>103.0</ele><time>2026-03-23T14:46:30.001Z</time></trkpt><trkpt lat="44.10834913342437" lon="9.897871415332254"><ele>103.0</ele><time>2026-03-23T14:46:31.001Z</time></trkpt><trkpt lat="44.10827114293239" lon="9.897840015846755"><ele>103.00000000000001</ele><time>2026-03-23T14:46:32.001Z</time></trkpt><trkpt lat="44.10819911945678" lon="9.897776947594823"><ele>103.0</ele><time>2026-03-23T14:46:33.001Z</time></trkpt><trkpt lat="44.10812612533126" lon="9.897731147775579"><ele>103.66666666666667</ele><time>2026-03-23T14:46:34.001Z</time></trkpt><trkpt lat="44.10804859852229" lon="9.897678789243049"><ele>104.33333333333334</ele><time>2026-03-23T14:46:35.001Z</time></trkpt><trkpt lat="44.107972805524604" lon="9.89762666240064"><ele>105.0</ele><time>2026-03-23T14:46:36.001Z</time></trkpt><trkpt lat="44.10788826770769" lon="9.897590189715983"><ele>105.66666666666666</ele><time>2026-03-23T14:46:37.001Z</time></trkpt><trkpt lat="44.10781448079276" lon="9.89753114252031"><ele>106.33333333333333</ele><time>2026-03-23T14:46:38.001Z</time></trkpt><trkpt lat="44.10773899993133" lon="9.897469777046817"><ele>107.0</ele><time>2026-03-23T14:46:39.001Z</time></trkpt><trkpt lat="44.10766546497836" lon="9.897426622268899"><ele>106.99999999999999</ele><time>2026-03-23T14:46:40.001Z</time></trkpt><trkpt lat="44.107582996011594" lon="9.897370759778745"><ele>107.0</ele><time>2026-03-23T14:46:41.001Z</time></trkpt><trkpt lat="44.10749587494931" lon="9.897361003072405"><ele>107.0</ele><time>2026-03-23T14:46:42.001Z</time></trkpt><trkpt lat="44.107415051725916" lon="9.89744028535805"><ele>107.0</ele><time>2026-03-23T14:46:43.001Z</time></trkpt><trkpt lat="44.10734736871996" lon="9.89750718508178"><ele>106.99999999999999</ele><time>2026-03-23T14:46:44.001Z</time></trkpt><trkpt lat="44.10727832494901" lon="9.89756602971671"><ele>107.0</ele><time>2026-03-23T14:46:45.001Z</time></trkpt><trkpt lat="44.10720399121339" lon="9.897604605308446"><ele>103.83333333333333</ele><time>2026-03-23T14:46:46.001Z</time></trkpt><trkpt lat="44.107125727152386" lon="9.897635092597723"><ele>100.66666666666666</ele><time>2026-03-23T14:46:47.001Z</time></trkpt><trkpt lat="44.10704613498075" lon="9.897655942038163"><ele>97.5</ele><time>2026-03-23T14:46:48.001Z</time></trkpt><trkpt lat="44.10696523242054" lon="9.897650552448109"><ele>94.33333333333333</ele><time>2026-03-23T14:46:49.001Z</time></trkpt><trkpt lat="44.106889585982465" lon="9.89763985008849"><ele>91.16666666666666</ele><time>2026-03-23T14:46:50.001Z</time></trkpt><trkpt lat="44.1068149497469" lon="9.897626177787872"><ele>88.0</ele><time>2026-03-23T14:46:51.001Z</time></trkpt><trkpt lat="44.10674091279405" lon="9.897603997784362"><ele>89.83333333333333</ele><time>2026-03-23T14:46:52.001Z</time></trkpt><trkpt lat="44.10668243375367" lon="9.897529245885487"><ele>91.66666666666666</ele><time>2026-03-23T14:46:53.001Z</time></trkpt><trkpt lat="44.10662308144382" lon="9.897467123334524"><ele>93.5</ele><time>2026-03-23T14:46:54.001Z</time></trkpt><trkpt lat="44.106557273595975" lon="9.897414061094626"><ele>95.33333333333333</ele><time>2026-03-23T14:46:55.001Z</time></trkpt><trkpt lat="44.106501200276924" lon="9.897336996536305"><ele>97.16666666666667</ele><time>2026-03-23T14:46:56.001Z</time></trkpt><trkpt lat="44.10644613903479" lon="9.897255267449946"><ele>99.0</ele><time>2026-03-23T14:46:57.001Z</time></trkpt><trkpt lat="44.10639149433424" lon="9.897170467811785"><ele>99.0</ele><time>2026-03-23T14:46:58Z</time></trkpt><trkpt lat="44.10633403962688" lon="9.897088928522265"><ele>99.0</ele><time>2026-03-23T14:46:59Z</time></trkpt><trkpt lat="44.10627483460071" lon="9.897010946161084"><ele>99.0</ele><time>2026-03-23T14:47:00Z</time></trkpt><trkpt lat="44.106209572198246" lon="9.896941915901376"><ele>99.0</ele><time>2026-03-23T14:47:01Z</time></trkpt><trkpt lat="44.10613568963508" lon="9.896889814545434"><ele>99.0</ele><time>2026-03-23T14:47:02Z</time></trkpt><trkpt lat="44.106054877354694" lon="9.896865402383684"><ele>99.0</ele><time>2026-03-23T14:47:03Z</time></trkpt><trkpt lat="44.10597536951062" lon="9.896848675968013"><ele>99.0</ele><time>2026-03-23T14:47:04Z</time></trkpt><trkpt lat="44.10589647717146" lon="9.896846920663203"><ele>99.0</ele><time>2026-03-23T14:47:05Z</time></trkpt><trkpt lat="44.10581734027698" lon="9.896839171252832"><ele>99.0</ele><time>2026-03-23T14:47:06Z</time></trkpt><trkpt lat="44.105744724173206" lon="9.896812519194938"><ele>99.0</ele><time>2026-03-23T14:47:07Z</time></trkpt><trkpt lat="44.10567574669404" lon="9.896777523745236"><ele>99.0</ele><time>2026-03-23T14:47:08Z</time></trkpt><trkpt lat="44.10560828365908" lon="9.896737088701675"><ele>99.0</ele><time>2026-03-23T14:47:09Z</time></trkpt><trkpt lat="44.10554486040137" lon="9.896688138286054"><ele>101.71428571428572</ele><time>2026-03-23T14:47:10Z</time></trkpt><trkpt lat="44.10548150321283" lon="9.896642405910987"><ele>104.42857142857142</ele><time>2026-03-23T14:47:11Z</time></trkpt><trkpt lat="44.10541539558834" lon="9.896603452482998"><ele>107.14285714285714</ele><time>2026-03-23T14:47:12Z</time></trkpt><trkpt lat="44.10534663670819" lon="9.89657284534475"><ele>109.85714285714286</ele><time>2026-03-23T14:47:13Z</time></trkpt><trkpt lat="44.10527507435194" lon="9.896553232715728"><ele>112.57142857142858</ele><time>2026-03-23T14:47:14Z</time></trkpt><trkpt lat="44.105201914257975" lon="9.896550775967588"><ele>115.28571428571428</ele><time>2026-03-23T14:47:15Z</time></trkpt><trkpt lat="44.105127548198126" lon="9.896555571117174"><ele>118.0</ele><time>2026-03-23T14:47:16Z</time></trkpt><trkpt lat="44.10505193134561" lon="9.896562316295796"><ele>118.0</ele><time>2026-03-23T14:47:17Z</time></trkpt><trkpt lat="44.10498004180195" lon="9.896572328707618"><ele>118.0</ele><time>2026-03-23T14:47:18Z</time></trkpt><trkpt lat="44.10490986368455" lon="9.8965725638283"><ele>118.0</ele><time>2026-03-23T14:47:19Z</time></trkpt><trkpt lat="44.10484262664907" lon="9.896558220416827"><ele>118.0</ele><time>2026-03-23T14:47:20Z</time></trkpt><trkpt lat="44.104776528364965" lon="9.896532683765175"><ele>118.0</ele><time>2026-03-23T14:47:21Z</time></trkpt><trkpt lat="44.10471417432568" lon="9.89649255154678"><ele>118.0</ele><time>2026-03-23T14:47:22Z</time></trkpt><trkpt lat="44.10465683947221" lon="9.896441566495136"><ele>118.0</ele><time>2026-03-23T14:47:23Z</time></trkpt><trkpt lat="44.104601572137184" lon="9.896383897875637"><ele>118.71428571428571</ele><time>2026-03-23T14:47:24Z</time></trkpt><trkpt lat="44.10454976407072" lon="9.896330683860542"><ele>119.42857142857144</ele><time>2026-03-23T14:47:25Z</time></trkpt><trkpt lat="44.104493771691295" lon="9.896286631134819"><ele>120.14285714285715</ele><time>2026-03-23T14:47:26Z</time></trkpt><trkpt lat="44.10443249821374" lon="9.896252855105251"><ele>120.85714285714286</ele><time>2026-03-23T14:47:27Z</time></trkpt><trkpt lat="44.10436598945685" lon="9.896223400654051"><ele>121.57142857142858</ele><time>2026-03-23T14:47:28Z</time></trkpt><trkpt lat="44.10429909940757" lon="9.89620846243196"><ele>122.2857142857143</ele><time>2026-03-23T14:47:29Z</time></trkpt><trkpt lat="44.104231782357104" lon="9.896201134731744"><ele>123.00000000000001</ele><time>2026-03-23T14:47:30Z</time></trkpt><trkpt lat="44.104163441280505" lon="9.896194377613678"><ele>123.00000000000001</ele><time>2026-03-23T14:47:31Z</time></trkpt><trkpt lat="44.10409629825058" lon="9.896187801051326"><ele>123.0</ele><time>2026-03-23T14:47:32Z</time></trkpt><trkpt lat="44.10403109249595" lon="9.896178262834189"><ele>123.00000000000001</ele><time>2026-03-23T14:47:33Z</time></trkpt><trkpt lat="44.10397210722551" lon="9.896136617043535"><ele>123.00000000000001</ele><time>2026-03-23T14:47:34Z</time></trkpt><trkpt lat="44.10390635589278" lon="9.896128445023853"><ele>123.0</ele><time>2026-03-23T14:47:35Z</time></trkpt><trkpt lat="44.103853390358005" lon="9.896067591169992"><ele>123.00000000000001</ele><time>2026-03-23T14:47:36Z</time></trkpt><trkpt lat="44.10379682945785" lon="9.896024148255231"><ele>123.00000000000001</ele><time>2026-03-23T14:47:37Z</time></trkpt><trkpt lat="44.103739286185935" lon="9.895979894739826"><ele>123.14285714285717</ele><time>2026-03-23T14:47:38Z</time></trkpt><trkpt lat="44.10368330949945" lon="9.895933817459781"><ele>123.28571428571429</ele><time>2026-03-23T14:47:39Z</time></trkpt><trkpt lat="44.103624660947936" lon="9.895885279591772"><ele>123.42857142857144</ele><time>2026-03-23T14:47:40Z</time></trkpt><trkpt lat="44.10356636388383" lon="9.895838105126733"><ele>123.57142857142858</ele><time>2026-03-23T14:47:41Z</time></trkpt><trkpt lat="44.10350366687191" lon="9.895800767455103"><ele>123.71428571428572</ele><time>2026-03-23T14:47:42Z</time></trkpt><trkpt lat="44.103440103188085" lon="9.895770521846066"><ele>123.85714285714286</ele><time>2026-03-23T14:47:43Z</time></trkpt><trkpt lat="44.103376188461965" lon="9.895739107162214"><ele>124.0</ele><time>2026-03-23T14:47:44Z</time></trkpt><trkpt lat="44.10330960311125" lon="9.895728478523795"><ele>123.85714285714286</ele><time>2026-03-23T14:47:45Z</time></trkpt><trkpt lat="44.103247049172005" lon="9.895710182271285"><ele>123.71428571428572</ele><time>2026-03-23T14:47:46Z</time></trkpt><trkpt lat="44.103175288099" lon="9.895716517749888"><ele>123.57142857142858</ele><time>2026-03-23T14:47:47Z</time></trkpt><trkpt lat="44.10310939793599" lon="9.895699179656187"><ele>123.42857142857144</ele><time>2026-03-23T14:47:48Z</time></trkpt><trkpt lat="44.10304366979152" lon="9.89567689681421"><ele>123.28571428571429</ele><time>2026-03-23T14:47:49Z</time></trkpt><trkpt lat="44.102978186890084" lon="9.89565577649844"><ele>123.14285714285717</ele><time>2026-03-23T14:47:50Z</time></trkpt><trkpt lat="44.102910202920306" lon="9.895640207146002"><ele>123.00000000000001</ele><time>2026-03-23T14:47:51Z</time></trkpt><trkpt lat="44.10283895133944" lon="9.895633955800527"><ele>123.00000000000001</ele><time>2026-03-23T14:47:52Z</time></trkpt><trkpt lat="44.10276806701203" lon="9.89563033998597"><ele>123.0</ele><time>2026-03-23T14:47:53Z</time></trkpt><trkpt lat="44.10269684995686" lon="9.895630342401375"><ele>123.00000000000001</ele><time>2026-03-23T14:47:54Z</time></trkpt><trkpt lat="44.102625189093416" lon="9.89563131370642"><ele>123.00000000000001</ele><time>2026-03-23T14:47:55Z</time></trkpt><trkpt lat="44.10255536319544" lon="9.89560983160381"><ele>123.0</ele><time>2026-03-23T14:47:56Z</time></trkpt><trkpt lat="44.102485455627566" lon="9.895607207599625"><ele>123.00000000000001</ele><time>2026-03-23T14:47:57Z</time></trkpt><trkpt lat="44.10241830261983" lon="9.89559573803882"><ele>123.00000000000001</ele><time>2026-03-23T14:47:58Z</time></trkpt><trkpt lat="44.10235168351833" lon="9.895573255159007"><ele>121.14285714285715</ele><time>2026-03-23T14:47:59Z</time></trkpt><trkpt lat="44.10227993429569" lon="9.895556359859079"><ele>119.28571428571429</ele><time>2026-03-23T14:48:00Z</time></trkpt><trkpt lat="44.10221724351615" lon="9.895507191046075"><ele>117.42857142857143</ele><time>2026-03-23T14:48:01Z</time></trkpt><trkpt lat="44.10216744690664" lon="9.895430473257843"><ele>115.57142857142858</ele><time>2026-03-23T14:48:02Z</time></trkpt><trkpt lat="44.10211080313656" lon="9.895363372505381"><ele>113.71428571428572</ele><time>2026-03-23T14:48:03Z</time></trkpt><trkpt lat="44.102055800043544" lon="9.895295774382625"><ele>111.85714285714285</ele><time>2026-03-23T14:48:04Z</time></trkpt><trkpt lat="44.10200305034877" lon="9.895222982416872"><ele>110.0</ele><time>2026-03-23T14:48:05Z</time></trkpt><trkpt lat="44.101951312542454" lon="9.895148345165163"><ele>111.49999999999999</ele><time>2026-03-23T14:48:06Z</time></trkpt><trkpt lat="44.10189556144179" lon="9.895078785621145"><ele>113.0</ele><time>2026-03-23T14:48:07Z</time></trkpt><trkpt lat="44.10183539071911" lon="9.89501617980755"><ele>114.5</ele><time>2026-03-23T14:48:08Z</time></trkpt><trkpt lat="44.10177254049517" lon="9.894961273215198"><ele>116.0</ele><time>2026-03-23T14:48:09Z</time></trkpt><trkpt lat="44.10169969959327" lon="9.894921006437032"><ele>117.49999999999999</ele><time>2026-03-23T14:48:10Z</time></trkpt><trkpt lat="44.10162927865271" lon="9.894887571754124"><ele>119.0</ele><time>2026-03-23T14:48:11Z</time></trkpt><trkpt lat="44.101557657157635" lon="9.894858978234469"><ele>119.0</ele><time>2026-03-23T14:48:12Z</time></trkpt><trkpt lat="44.10148129995076" lon="9.894848671024713"><ele>119.0</ele><time>2026-03-23T14:48:13Z</time></trkpt><trkpt lat="44.10141178762193" lon="9.894815317230426"><ele>119.0</ele><time>2026-03-23T14:48:14Z</time></trkpt><trkpt lat="44.10134315262308" lon="9.89477979748421"><ele>119.0</ele><time>2026-03-23T14:48:15Z</time></trkpt><trkpt lat="44.10127862885917" lon="9.89473565967434"><ele>119.0</ele><time>2026-03-23T14:48:16Z</time></trkpt><trkpt lat="44.101219759844575" lon="9.894676930021712"><ele>119.0</ele><time>2026-03-23T14:48:17Z</time></trkpt><trkpt lat="44.10118102261353" lon="9.894596004609697"><ele>119.0</ele><time>2026-03-23T14:48:18Z</time></trkpt><trkpt lat="44.10113158209044" lon="9.894534577662046"><ele>119.0</ele><time>2026-03-23T14:48:19Z</time></trkpt><trkpt lat="44.10108412267711" lon="9.894472442472543"><ele>119.0</ele><time>2026-03-23T14:48:20Z</time></trkpt><trkpt lat="44.10103552487041" lon="9.894408816870037"><ele>119.0</ele><time>2026-03-23T14:48:21Z</time></trkpt><trkpt lat="44.10098790206887" lon="9.8943489657537"><ele>119.0</ele><time>2026-03-23T14:48:22Z</time></trkpt><trkpt lat="44.10093715797703" lon="9.89429198418451"><ele>119.0</ele><time>2026-03-23T14:48:23Z</time></trkpt><trkpt lat="44.10087994783729" lon="9.894238561046775"><ele>119.0</ele><time>2026-03-23T14:48:24Z</time></trkpt><trkpt lat="44.10082098715325" lon="9.894195223751908"><ele>119.0</ele><time>2026-03-23T14:48:25Z</time></trkpt><trkpt lat="44.10075404189374" lon="9.894161090390265"><ele>119.83333333333333</ele><time>2026-03-23T14:48:26Z</time></trkpt><trkpt lat="44.100683738776354" lon="9.894156306338466"><ele>120.66666666666666</ele><time>2026-03-23T14:48:27Z</time></trkpt><trkpt lat="44.10061843111958" lon="9.894134408960921"><ele>121.5</ele><time>2026-03-23T14:48:28Z</time></trkpt><trkpt lat="44.10055305482419" lon="9.894118189621835"><ele>122.33333333333334</ele><time>2026-03-23T14:48:29Z</time></trkpt><trkpt lat="44.1004944025453" lon="9.89407605905148"><ele>123.16666666666667</ele><time>2026-03-23T14:48:30Z</time></trkpt><trkpt lat="44.10040044643963" lon="9.893982660184216"><ele>124.0</ele><time>2026-03-23T14:48:32Z</time></trkpt><trkpt lat="44.10033520954175" lon="9.893841364553339"><ele>124.0</ele><time>2026-03-23T14:48:34Z</time></trkpt><trkpt lat="44.10031668335808" lon="9.893669488334893"><ele>124.0</ele><time>2026-03-23T14:48:36Z</time></trkpt><trkpt lat="44.10030614715049" lon="9.893517199638739"><ele>124.0</ele><time>2026-03-23T14:48:38Z</time></trkpt><trkpt lat="44.10025437528198" lon="9.893376254347327"><ele>124.0</ele><time>2026-03-23T14:48:40Z</time></trkpt><trkpt lat="44.10016041481605" lon="9.893268008230848"><ele>126.75</ele><time>2026-03-23T14:48:42Z</time></trkpt><trkpt lat="44.10006720512475" lon="9.893168286782831"><ele>129.5</ele><time>2026-03-23T14:48:44Z</time></trkpt><trkpt lat="44.09997078634003" lon="9.89306990254596"><ele>132.25</ele><time>2026-03-23T14:48:46Z</time></trkpt><trkpt lat="44.099867866996966" lon="9.892991196467355"><ele>135.0</ele><time>2026-03-23T14:48:48Z</time></trkpt><trkpt lat="44.09975545285637" lon="9.892930160217785"><ele>135.0</ele><time>2026-03-23T14:48:50Z</time></trkpt><trkpt lat="44.09964298221958" lon="9.892916901136402"><ele>135.0</ele><time>2026-03-23T14:48:52Z</time></trkpt><trkpt lat="44.09953225880423" lon="9.892931612410278"><ele>135.0</ele><time>2026-03-23T14:48:54Z</time></trkpt><trkpt lat="44.09941792709487" lon="9.892967191072955"><ele>135.0</ele><time>2026-03-23T14:48:56Z</time></trkpt><trkpt lat="44.099299718506266" lon="9.89298076687142"><ele>135.0</ele><time>2026-03-23T14:48:58Z</time></trkpt><trkpt lat="44.09917900511529" lon="9.892974534781883"><ele>135.0</ele><time>2026-03-23T14:49:00Z</time></trkpt><trkpt lat="44.099062751315955" lon="9.89295718124201"><ele>135.0</ele><time>2026-03-23T14:49:02Z</time></trkpt><trkpt lat="44.09894617328303" lon="9.892932245042287"><ele>135.0</ele><time>2026-03-23T14:49:04Z</time></trkpt><trkpt lat="44.09883643710284" lon="9.89291442953235"><ele>133.25</ele><time>2026-03-23T14:49:06Z</time></trkpt><trkpt lat="44.098724167593225" lon="9.892892627807989"><ele>131.5</ele><time>2026-03-23T14:49:08Z</time></trkpt><trkpt lat="44.09862698553781" lon="9.89283856832093"><ele>129.75</ele><time>2026-03-23T14:49:10Z</time></trkpt><trkpt lat="44.0985340224311" lon="9.892748416913678"><ele>128.0</ele><time>2026-03-23T14:49:12Z</time></trkpt><trkpt lat="44.09846487644481" lon="9.892613123505027"><ele>130.5</ele><time>2026-03-23T14:49:14Z</time></trkpt><trkpt lat="44.098381090545246" lon="9.892512096210188"><ele>133.0</ele><time>2026-03-23T14:49:16Z</time></trkpt><trkpt lat="44.09829261560083" lon="9.892410248082669"><ele>135.5</ele><time>2026-03-23T14:49:18Z</time></trkpt><trkpt lat="44.098203288481436" lon="9.892307419023401"><ele>138.0</ele><time>2026-03-23T14:49:20Z</time></trkpt><trkpt lat="44.09811690017626" lon="9.892207972903773"><ele>140.0</ele><time>2026-03-23T14:49:22Z</time></trkpt><trkpt lat="44.09803126805045" lon="9.892109397304022"><ele>142.0</ele><time>2026-03-23T14:49:24Z</time></trkpt><trkpt lat="44.0979482398763" lon="9.8920121543384"><ele>144.0</ele><time>2026-03-23T14:49:26Z</time></trkpt><trkpt lat="44.09786875715309" lon="9.89191463260772"><ele>146.0</ele><time>2026-03-23T14:49:28Z</time></trkpt><trkpt lat="44.097798884310436" lon="9.891820692587228"><ele>148.0</ele><time>2026-03-23T14:49:30Z</time></trkpt><trkpt lat="44.09775054504687" lon="9.891750973054178"><ele>148.0</ele><time>2026-03-23T14:49:32Z</time></trkpt><trkpt lat="44.097692187846384" lon="9.891694105156086"><ele>148.0</ele><time>2026-03-23T14:49:34Z</time></trkpt><trkpt lat="44.09764636183196" lon="9.891602464295557"><ele>148.0</ele><time>2026-03-23T14:49:36Z</time></trkpt><trkpt lat="44.0975110910146" lon="9.89172083698178"><ele>148.0</ele><time>2026-03-23T14:49:39Z</time></trkpt><trkpt lat="44.097438450554876" lon="9.891776712467834"><ele>148.0</ele><time>2026-03-23T14:49:41Z</time></trkpt><trkpt lat="44.09736613135068" lon="9.891832664877617"><ele>149.0</ele><time>2026-03-23T14:49:43Z</time></trkpt><trkpt lat="44.097301021429416" lon="9.89190780782903"><ele>150.0</ele><time>2026-03-23T14:49:45Z</time></trkpt><trkpt lat="44.097235887634255" lon="9.891982934811995"><ele>151.0</ele><time>2026-03-23T14:49:47Z</time></trkpt><trkpt lat="44.09718572236161" lon="9.892093019025632"><ele>152.0</ele><time>2026-03-23T14:49:49Z</time></trkpt><trkpt lat="44.09714426954049" lon="9.892216575871585"><ele>153.0</ele><time>2026-03-23T14:49:51Z</time></trkpt><trkpt lat="44.097096590485606" lon="9.892318741331504"><ele>154.0</ele><time>2026-03-23T14:49:53Z</time></trkpt><trkpt lat="44.09700031255079" lon="9.89233953294331"><ele>154.0</ele><time>2026-03-23T14:49:55Z</time></trkpt><trkpt lat="44.09690808184789" lon="9.892329376871405"><ele>154.0</ele><time>2026-03-23T14:49:57Z</time></trkpt><trkpt lat="44.096819527082616" lon="9.892268210247469"><ele>154.0</ele><time>2026-03-23T14:49:59Z</time></trkpt><trkpt lat="44.09673155328882" lon="9.892203204733352"><ele>154.0</ele><time>2026-03-23T14:50:01Z</time></trkpt><trkpt lat="44.096636130263306" lon="9.89216245412064"><ele>154.0</ele><time>2026-03-23T14:50:03Z</time></trkpt><trkpt lat="44.09655503998509" lon="9.892080879219348"><ele>157.4</ele><time>2026-03-23T14:50:05Z</time></trkpt><trkpt lat="44.096471487262775" lon="9.892011927340247"><ele>160.8</ele><time>2026-03-23T14:50:07Z</time></trkpt><trkpt lat="44.096377367550126" lon="9.891932179504682"><ele>164.20000000000002</ele><time>2026-03-23T14:50:09Z</time></trkpt><trkpt lat="44.096279736042966" lon="9.891876465776566"><ele>167.60000000000002</ele><time>2026-03-23T14:50:11Z</time></trkpt><trkpt lat="44.09618121936012" lon="9.891835015496152"><ele>171.0</ele><time>2026-03-23T14:50:13Z</time></trkpt><trkpt lat="44.09608245312919" lon="9.891805863603464"><ele>171.0</ele><time>2026-03-23T14:50:15Z</time></trkpt><trkpt lat="44.09597151871511" lon="9.891839710154738"><ele>171.0</ele><time>2026-03-23T14:50:17Z</time></trkpt><trkpt lat="44.09588869203207" lon="9.891960927283499"><ele>171.0</ele><time>2026-03-23T14:50:19Z</time></trkpt><trkpt lat="44.09584219618517" lon="9.892098295145315"><ele>171.0</ele><time>2026-03-23T14:50:21Z</time></trkpt><trkpt lat="44.09579618530598" lon="9.892244971583274"><ele>170.60000000000002</ele><time>2026-03-23T14:50:23Z</time></trkpt><trkpt lat="44.095744078683694" lon="9.892379813756785"><ele>170.2</ele><time>2026-03-23T14:50:25Z</time></trkpt><trkpt lat="44.09569435394986" lon="9.892532000109819"><ele>169.8</ele><time>2026-03-23T14:50:27Z</time></trkpt><trkpt lat="44.09563729347813" lon="9.89268460223891"><ele>169.39999999999998</ele><time>2026-03-23T14:50:29Z</time></trkpt><trkpt lat="44.09560793802517" lon="9.892763376905329"><ele>169.0</ele><time>2026-03-23T14:50:30Z</time></trkpt><trkpt lat="44.095562860245565" lon="9.892829505243547"><ele>169.0</ele><time>2026-03-23T14:50:31Z</time></trkpt><trkpt lat="44.09553560501353" lon="9.892913596324624"><ele>169.0</ele><time>2026-03-23T14:50:32Z</time></trkpt><trkpt lat="44.095492765356944" lon="9.892979958427922"><ele>169.0</ele><time>2026-03-23T14:50:33Z</time></trkpt><trkpt lat="44.09545010621707" lon="9.89304715344565"><ele>169.0</ele><time>2026-03-23T14:50:34Z</time></trkpt><trkpt lat="44.09540837037418" lon="9.893117971339292"><ele>169.0</ele><time>2026-03-23T14:50:35Z</time></trkpt><trkpt lat="44.095371179851334" lon="9.893193070651485"><ele>169.0</ele><time>2026-03-23T14:50:36Z</time></trkpt><trkpt lat="44.095339977379396" lon="9.893273376928526"><ele>169.0</ele><time>2026-03-23T14:50:37Z</time></trkpt><trkpt lat="44.09531359275494" lon="9.893356454297297"><ele>167.16666666666669</ele><time>2026-03-23T14:50:38Z</time></trkpt><trkpt lat="44.09529217064708" lon="9.893441786324685"><ele>165.33333333333334</ele><time>2026-03-23T14:50:39Z</time></trkpt><trkpt lat="44.09527856243911" lon="9.893528076557661"><ele>163.5</ele><time>2026-03-23T14:50:40Z</time></trkpt><trkpt lat="44.095267575098205" lon="9.8937000770122"><ele>161.66666666666666</ele><time>2026-03-23T14:50:42Z</time></trkpt><trkpt lat="44.095269039555845" lon="9.893789439639697"><ele>159.83333333333331</ele><time>2026-03-23T14:50:43Z</time></trkpt><trkpt lat="44.09527314059951" lon="9.893879530615761"><ele>158.0</ele><time>2026-03-23T14:50:44Z</time></trkpt><trkpt lat="44.09527972763193" lon="9.893975334556997"><ele>158.00000000000003</ele><time>2026-03-23T14:50:45Z</time></trkpt><trkpt lat="44.09529557324085" lon="9.894064648689378"><ele>158.0</ele><time>2026-03-23T14:50:46Z</time></trkpt><trkpt lat="44.095311226325144" lon="9.894154691428348"><ele>158.0</ele><time>2026-03-23T14:50:47Z</time></trkpt><trkpt lat="44.09532623480161" lon="9.894242884718667"><ele>158.0</ele><time>2026-03-23T14:50:48Z</time></trkpt><trkpt lat="44.095337539178615" lon="9.894333570379432"><ele>158.0</ele><time>2026-03-23T14:50:49Z</time></trkpt><trkpt lat="44.095349530764445" lon="9.89442253971719"><ele>158.00000000000003</ele><time>2026-03-23T14:50:50Z</time></trkpt><trkpt lat="44.09535963581302" lon="9.894512544233354"><ele>158.0</ele><time>2026-03-23T14:50:51Z</time></trkpt><trkpt lat="44.09536340882813" lon="9.894603477729985"><ele>157.14285714285717</ele><time>2026-03-23T14:50:52Z</time></trkpt><trkpt lat="44.095357258706905" lon="9.89469506017031"><ele>156.28571428571428</ele><time>2026-03-23T14:50:53Z</time></trkpt><trkpt lat="44.09534392937382" lon="9.894784508105529"><ele>155.42857142857144</ele><time>2026-03-23T14:50:54Z</time></trkpt><trkpt lat="44.095327606497854" lon="9.894871748342348"><ele>154.57142857142858</ele><time>2026-03-23T14:50:55Z</time></trkpt><trkpt lat="44.095313490800564" lon="9.894958878269946"><ele>153.71428571428572</ele><time>2026-03-23T14:50:56Z</time></trkpt><trkpt lat="44.09530197031412" lon="9.895046186743576"><ele>152.85714285714286</ele><time>2026-03-23T14:50:57Z</time></trkpt><trkpt lat="44.095298585555724" lon="9.895135900585833"><ele>152.0</ele><time>2026-03-23T14:50:58Z</time></trkpt><trkpt lat="44.09531458734302" lon="9.895224080368601"><ele>152.0</ele><time>2026-03-23T14:50:59Z</time></trkpt><trkpt lat="44.0953409406392" lon="9.89531061094909"><ele>152.0</ele><time>2026-03-23T14:51:00Z</time></trkpt><trkpt lat="44.09536993297358" lon="9.895395679110976"><ele>152.0</ele><time>2026-03-23T14:51:01Z</time></trkpt><trkpt lat="44.095399744231564" lon="9.89548020134337"><ele>152.0</ele><time>2026-03-23T14:51:02Z</time></trkpt><trkpt lat="44.095430798885396" lon="9.895566175885435"><ele>152.0</ele><time>2026-03-23T14:51:03Z</time></trkpt><trkpt lat="44.09545926339153" lon="9.895650345860238"><ele>152.0</ele><time>2026-03-23T14:51:04Z</time></trkpt><trkpt lat="44.09548234348415" lon="9.89574072357203"><ele>152.0</ele><time>2026-03-23T14:51:05Z</time></trkpt><trkpt lat="44.0955025750317" lon="9.895833451286766"><ele>155.42857142857142</ele><time>2026-03-23T14:51:06Z</time></trkpt><trkpt lat="44.095523769057046" lon="9.895926579950451"><ele>158.85714285714286</ele><time>2026-03-23T14:51:07Z</time></trkpt><trkpt lat="44.095545772399035" lon="9.896021437503798"><ele>162.28571428571428</ele><time>2026-03-23T14:51:08Z</time></trkpt><trkpt lat="44.09557039082626" lon="9.896113376272227"><ele>165.71428571428572</ele><time>2026-03-23T14:51:09Z</time></trkpt><trkpt lat="44.09559244605422" lon="9.896204787844093"><ele>169.14285714285714</ele><time>2026-03-23T14:51:10Z</time></trkpt><trkpt lat="44.09561263066396" lon="9.896303043154274"><ele>172.57142857142858</ele><time>2026-03-23T14:51:11Z</time></trkpt><trkpt lat="44.095627761117285" lon="9.89640926446861"><ele>176.0</ele><time>2026-03-23T14:51:12Z</time></trkpt><trkpt lat="44.09562693703241" lon="9.896520622345832"><ele>176.0</ele><time>2026-03-23T14:51:13Z</time></trkpt><trkpt lat="44.095603277214565" lon="9.896631477272143"><ele>176.0</ele><time>2026-03-23T14:51:14Z</time></trkpt><trkpt lat="44.09555466618192" lon="9.896727813902457"><ele>176.0</ele><time>2026-03-23T14:51:15Z</time></trkpt><trkpt lat="44.095482736412784" lon="9.896793426658967"><ele>176.0</ele><time>2026-03-23T14:51:16Z</time></trkpt><trkpt lat="44.095401583467236" lon="9.89681864436217"><ele>176.0</ele><time>2026-03-23T14:51:17Z</time></trkpt><trkpt lat="44.09532251668848" lon="9.896808050774077"><ele>176.0</ele><time>2026-03-23T14:51:18Z</time></trkpt><trkpt lat="44.09524973847963" lon="9.896781154863012"><ele>176.0</ele><time>2026-03-23T14:51:19Z</time></trkpt><trkpt lat="44.095183752447646" lon="9.896756596003565"><ele>176.0</ele><time>2026-03-23T14:51:20Z</time></trkpt><trkpt lat="44.095118622431954" lon="9.896751474272437"><ele>176.0</ele><time>2026-03-23T14:51:21Z</time></trkpt><trkpt lat="44.09499883472356" lon="9.896740173789839"><ele>176.0</ele><time>2026-03-23T14:51:23Z</time></trkpt><trkpt lat="44.094878220370056" lon="9.896738845366851"><ele>176.0</ele><time>2026-03-23T14:51:25Z</time></trkpt><trkpt lat="44.094754775589536" lon="9.896777903515385"><ele>177.33333333333331</ele><time>2026-03-23T14:51:27Z</time></trkpt><trkpt lat="44.09463666743208" lon="9.896832147474791"><ele>178.66666666666666</ele><time>2026-03-23T14:51:29Z</time></trkpt><trkpt lat="44.094576259312944" lon="9.896859948071423"><ele>180.0</ele><time>2026-03-23T14:51:30Z</time></trkpt><trkpt lat="44.09451753688508" lon="9.896898195302974"><ele>181.33333333333334</ele><time>2026-03-23T14:51:31Z</time></trkpt><trkpt lat="44.09446027575488" lon="9.89693780358936"><ele>182.66666666666669</ele><time>2026-03-23T14:51:32Z</time></trkpt><trkpt lat="44.09440148765789" lon="9.896978280281859"><ele>184.0</ele><time>2026-03-23T14:51:33Z</time></trkpt><trkpt lat="44.09428853810331" lon="9.897059434796153"><ele>184.0</ele><time>2026-03-23T14:51:35Z</time></trkpt><trkpt lat="44.094230294167424" lon="9.897095916829937"><ele>184.0</ele><time>2026-03-23T14:51:36Z</time></trkpt><trkpt lat="44.094116983592635" lon="9.897171205892416"><ele>184.0</ele><time>2026-03-23T14:51:38Z</time></trkpt><trkpt lat="44.094005062619175" lon="9.897241573939842"><ele>184.0</ele><time>2026-03-23T14:51:40Z</time></trkpt><trkpt lat="44.093910090159945" lon="9.89729389459569"><ele>184.0</ele><time>2026-03-23T14:51:42Z</time></trkpt><trkpt lat="44.09382992804012" lon="9.897345904682568"><ele>178.5</ele><time>2026-03-23T14:51:44Z</time></trkpt><trkpt lat="44.09374091741541" lon="9.897421362881145"><ele>173.0</ele><time>2026-03-23T14:51:46Z</time></trkpt><trkpt lat="44.09371603131106" lon="9.897590385358125"><ele>167.5</ele><time>2026-03-23T14:51:48Z</time></trkpt><trkpt lat="44.093756009579586" lon="9.897745604433018"><ele>162.0</ele><time>2026-03-23T14:51:50Z</time></trkpt><trkpt lat="44.093851431391556" lon="9.897833537245965"><ele>160.0</ele><time>2026-03-23T14:51:52Z</time></trkpt><trkpt lat="44.09395245509262" lon="9.897883053823577"><ele>158.0</ele><time>2026-03-23T14:51:54Z</time></trkpt><trkpt lat="44.09405270493239" lon="9.897936374811893"><ele>156.0</ele><time>2026-03-23T14:51:56Z</time></trkpt><trkpt lat="44.09415103207516" lon="9.89799047822586"><ele>154.0</ele><time>2026-03-23T14:51:58Z</time></trkpt><trkpt lat="44.09425362049954" lon="9.898043994916597"><ele>152.0</ele><time>2026-03-23T14:52:00Z</time></trkpt><trkpt lat="44.09435185427388" lon="9.898112141336705"><ele>157.8</ele><time>2026-03-23T14:52:02Z</time></trkpt><trkpt lat="44.09443565847899" lon="9.898207915871609"><ele>163.6</ele><time>2026-03-23T14:52:04Z</time></trkpt><trkpt lat="44.09446600723207" lon="9.898353617144389"><ele>169.4</ele><time>2026-03-23T14:52:06Z</time></trkpt><trkpt lat="44.094420976970234" lon="9.898500800269002"><ele>175.20000000000002</ele><time>2026-03-23T14:52:08Z</time></trkpt><trkpt lat="44.09435859929781" lon="9.898618327132773"><ele>181.0</ele><time>2026-03-23T14:52:10Z</time></trkpt><trkpt lat="44.09431926276819" lon="9.898728856543066"><ele>181.0</ele><time>2026-03-23T14:52:12Z</time></trkpt><trkpt lat="44.094295408456674" lon="9.898812635564168"><ele>181.0</ele><time>2026-03-23T14:52:14Z</time></trkpt><trkpt lat="44.09426014383844" lon="9.898921990573495"><ele>181.0</ele><time>2026-03-23T14:52:16Z</time></trkpt><trkpt lat="44.09420340201454" lon="9.899083264373708"><ele>181.0</ele><time>2026-03-23T14:52:18Z</time></trkpt><trkpt lat="44.09417038974301" lon="9.89917522033728"><ele>181.0</ele><time>2026-03-23T14:52:19Z</time></trkpt><trkpt lat="44.094111416765166" lon="9.899306185634266"><ele>180.33333333333334</ele><time>2026-03-23T14:52:21Z</time></trkpt><trkpt lat="44.09405839071623" lon="9.899416740634486"><ele>179.66666666666669</ele><time>2026-03-23T14:52:23Z</time></trkpt><trkpt lat="44.094031632507644" lon="9.899547077423563"><ele>179.0</ele><time>2026-03-23T14:52:25Z</time></trkpt><trkpt lat="44.09408693925642" lon="9.899616774362363"><ele>178.33333333333334</ele><time>2026-03-23T14:52:26Z</time></trkpt><trkpt lat="44.09413588691084" lon="9.899673459119708"><ele>177.66666666666666</ele><time>2026-03-23T14:52:28Z</time></trkpt><trkpt lat="44.09407852296308" lon="9.899625165624988"><ele>177.0</ele><time>2026-03-23T14:52:36Z</time></trkpt><trkpt lat="44.09402381639792" lon="9.899557611130676"><ele>177.0</ele><time>2026-03-23T14:52:39Z</time></trkpt><trkpt lat="44.0941077112062" lon="9.899328392024927"><ele>177.0</ele><time>2026-03-23T14:52:43Z</time></trkpt><trkpt lat="44.09414870476889" lon="9.899234038787846"><ele>177.0</ele><time>2026-03-23T14:52:45Z</time></trkpt><trkpt lat="44.09418988023353" lon="9.89914105721507"><ele>177.0</ele><time>2026-03-23T14:52:47Z</time></trkpt><trkpt lat="44.09422383580482" lon="9.899040457138609"><ele>177.0</ele><time>2026-03-23T14:52:49Z</time></trkpt><trkpt lat="44.09425712932297" lon="9.898940850545248"><ele>177.0</ele><time>2026-03-23T14:52:51Z</time></trkpt><trkpt lat="44.09428507354187" lon="9.898836555056509"><ele>177.0</ele><time>2026-03-23T14:52:54Z</time></trkpt><trkpt lat="44.09431586480821" lon="9.898921476789052"><ele>177.0</ele><time>2026-03-23T14:52:59Z</time></trkpt><trkpt lat="44.09428109943305" lon="9.899009620964636"><ele>177.0</ele><time>2026-03-23T14:53:01Z</time></trkpt><trkpt lat="44.094270363561925" lon="9.899107789378549"><ele>177.0</ele><time>2026-03-23T14:53:03Z</time></trkpt><trkpt lat="44.09426663396744" lon="9.899222959919001"><ele>177.0</ele><time>2026-03-23T14:53:05Z</time></trkpt><trkpt lat="44.094280906033205" lon="9.89933574707255"><ele>177.0</ele><time>2026-03-23T14:53:07Z</time></trkpt><trkpt lat="44.09433581985079" lon="9.899421352201413"><ele>177.0</ele><time>2026-03-23T14:53:09Z</time></trkpt><trkpt lat="44.09441210023972" lon="9.899491453570516"><ele>177.0</ele><time>2026-03-23T14:53:11Z</time></trkpt><trkpt lat="44.094490634448526" lon="9.89955929223585"><ele>177.0</ele><time>2026-03-23T14:53:13Z</time></trkpt><trkpt lat="44.0945633637886" lon="9.899636689867132"><ele>177.0</ele><time>2026-03-23T14:53:15Z</time></trkpt><trkpt lat="44.0946192427114" lon="9.899741379007034"><ele>177.0</ele><time>2026-03-23T14:53:17Z</time></trkpt><trkpt lat="44.09464023065553" lon="9.899873262454017"><ele>177.0</ele><time>2026-03-23T14:53:19Z</time></trkpt><trkpt lat="44.094645121860665" lon="9.900011830864916"><ele>177.0</ele><time>2026-03-23T14:53:21Z</time></trkpt><trkpt lat="44.094633342976564" lon="9.900160858097209"><ele>177.0</ele><time>2026-03-23T14:53:23Z</time></trkpt><trkpt lat="44.09460777462407" lon="9.900320698739156"><ele>177.0</ele><time>2026-03-23T14:53:25Z</time></trkpt><trkpt lat="44.094568574839336" lon="9.900469867795916"><ele>175.6</ele><time>2026-03-23T14:53:27Z</time></trkpt><trkpt lat="44.09454271576666" lon="9.900620406830557"><ele>174.2</ele><time>2026-03-23T14:53:29Z</time></trkpt><trkpt lat="44.09452206117238" lon="9.90077426303939"><ele>172.8</ele><time>2026-03-23T14:53:31Z</time></trkpt><trkpt lat="44.09449961404102" lon="9.900925749215485"><ele>171.4</ele><time>2026-03-23T14:53:33Z</time></trkpt><trkpt lat="44.094492335842375" lon="9.901076874564398"><ele>170.0</ele><time>2026-03-23T14:53:35Z</time></trkpt><trkpt lat="44.09450705286613" lon="9.901224939586637"><ele>169.8</ele><time>2026-03-23T14:53:37Z</time></trkpt><trkpt lat="44.09453720281146" lon="9.901372771568948"><ele>169.6</ele><time>2026-03-23T14:53:39Z</time></trkpt><trkpt lat="44.09457684070224" lon="9.901512009833745"><ele>169.39999999999998</ele><time>2026-03-23T14:53:41Z</time></trkpt><trkpt lat="44.09462713271492" lon="9.901655425925602"><ele>169.2</ele><time>2026-03-23T14:53:43Z</time></trkpt><trkpt lat="44.09467232770919" lon="9.901789367039473"><ele>169.0</ele><time>2026-03-23T14:53:45Z</time></trkpt><trkpt lat="44.094717606067746" lon="9.901924255037928"><ele>169.0</ele><time>2026-03-23T14:53:47Z</time></trkpt><trkpt lat="44.09476872967368" lon="9.902045248885251"><ele>169.0</ele><time>2026-03-23T14:53:49Z</time></trkpt><trkpt lat="44.09482139896797" lon="9.90217140275623"><ele>169.0</ele><time>2026-03-23T14:53:51Z</time></trkpt><trkpt lat="44.094868059526405" lon="9.90229761840973"><ele>169.0</ele><time>2026-03-23T14:53:53Z</time></trkpt><trkpt lat="44.09490638701225" lon="9.902427281908201"><ele>169.0</ele><time>2026-03-23T14:53:55Z</time></trkpt><trkpt lat="44.094937322737735" lon="9.902564005611485"><ele>178.79999999999998</ele><time>2026-03-23T14:53:57Z</time></trkpt><trkpt lat="44.094961663873335" lon="9.90270708801942"><ele>188.6</ele><time>2026-03-23T14:53:59Z</time></trkpt><trkpt lat="44.09497191358393" lon="9.90284322495597"><ele>198.4</ele><time>2026-03-23T14:54:01Z</time></trkpt><trkpt lat="44.09496463304647" lon="9.902980403838878"><ele>208.2</ele><time>2026-03-23T14:54:03Z</time></trkpt><trkpt lat="44.09495291684756" lon="9.903115627385105"><ele>218.0</ele><time>2026-03-23T14:54:05Z</time></trkpt><trkpt lat="44.0949251279639" lon="9.903252470652934"><ele>220.0</ele><time>2026-03-23T14:54:07Z</time></trkpt><trkpt lat="44.094889451934556" lon="9.903387689228191"><ele>222.0</ele><time>2026-03-23T14:54:09Z</time></trkpt><trkpt lat="44.09483750530556" lon="9.90350756867841"><ele>224.0</ele><time>2026-03-23T14:54:11Z</time></trkpt><trkpt lat="44.0947754355262" lon="9.903623838207508"><ele>226.0</ele><time>2026-03-23T14:54:13Z</time></trkpt><trkpt lat="44.09471746503972" lon="9.903738317714554"><ele>228.0</ele><time>2026-03-23T14:54:15Z</time></trkpt><trkpt lat="44.09464283326458" lon="9.90383139036197"><ele>228.0</ele><time>2026-03-23T14:54:17Z</time></trkpt><trkpt lat="44.09453666133975" lon="9.903875808788"><ele>228.0</ele><time>2026-03-23T14:54:19Z</time></trkpt><trkpt lat="44.09442607266645" lon="9.90385951656793"><ele>228.0</ele><time>2026-03-23T14:54:21Z</time></trkpt><trkpt lat="44.0943246590486" lon="9.903815344066839"><ele>228.0</ele><time>2026-03-23T14:54:23Z</time></trkpt><trkpt lat="44.0942217870181" lon="9.903811946596228"><ele>228.0</ele><time>2026-03-23T14:54:25Z</time></trkpt><trkpt lat="44.094116976484884" lon="9.903855663479685"><ele>228.4</ele><time>2026-03-23T14:54:27Z</time></trkpt><trkpt lat="44.09402302693645" lon="9.90392358517029"><ele>228.8</ele><time>2026-03-23T14:54:29Z</time></trkpt><trkpt lat="44.093957299303476" lon="9.904031394937098"><ele>229.2</ele><time>2026-03-23T14:54:31Z</time></trkpt><trkpt lat="44.09388615263938" lon="9.904144035088075"><ele>229.6</ele><time>2026-03-23T14:54:33Z</time></trkpt><trkpt lat="44.09380266027671" lon="9.904225506856834"><ele>230.0</ele><time>2026-03-23T14:54:35Z</time></trkpt><trkpt lat="44.09370815184015" lon="9.904304983564844"><ele>230.0</ele><time>2026-03-23T14:54:37Z</time></trkpt><trkpt lat="44.09360368225385" lon="9.904326222417106"><ele>230.0</ele><time>2026-03-23T14:54:39Z</time></trkpt><trkpt lat="44.093490495641056" lon="9.904328643937557"><ele>230.0</ele><time>2026-03-23T14:54:41Z</time></trkpt><trkpt lat="44.09338460112242" lon="9.904299686193069"><ele>230.0</ele><time>2026-03-23T14:54:43Z</time></trkpt><trkpt lat="44.093311523589215" lon="9.904260352094102"><ele>230.0</ele><time>2026-03-23T14:54:45Z</time></trkpt><trkpt lat="44.09322141720913" lon="9.904179153790684"><ele>223.66666666666669</ele><time>2026-03-23T14:54:48Z</time></trkpt><trkpt lat="44.09312805911638" lon="9.904178259154438"><ele>217.33333333333334</ele><time>2026-03-23T14:54:50Z</time></trkpt><trkpt lat="44.09303343985234" lon="9.904204420851087"><ele>211.0</ele><time>2026-03-23T14:54:52Z</time></trkpt><trkpt lat="44.09293234505828" lon="9.904307450466295"><ele>204.66666666666669</ele><time>2026-03-23T14:54:54Z</time></trkpt><trkpt lat="44.09288851747898" lon="9.904373340014729"><ele>198.33333333333334</ele><time>2026-03-23T14:54:55Z</time></trkpt><trkpt lat="44.09285918123063" lon="9.904451642513287"><ele>192.0</ele><time>2026-03-23T14:54:56Z</time></trkpt><trkpt lat="44.09282641192187" lon="9.904612695839782"><ele>192.0</ele><time>2026-03-23T14:54:58Z</time></trkpt><trkpt lat="44.09282794814095" lon="9.904790793561734"><ele>192.0</ele><time>2026-03-23T14:55:00Z</time></trkpt><trkpt lat="44.09283043885243" lon="9.904887281888072"><ele>192.0</ele><time>2026-03-23T14:55:01Z</time></trkpt><trkpt lat="44.09281634776333" lon="9.904980418236354"><ele>192.0</ele><time>2026-03-23T14:55:02Z</time></trkpt><trkpt lat="44.092775455590214" lon="9.905056133682614"><ele>192.0</ele><time>2026-03-23T14:55:03Z</time></trkpt><trkpt lat="44.092763840055376" lon="9.905153253241206"><ele>192.0</ele><time>2026-03-23T14:55:04Z</time></trkpt><trkpt lat="44.09272313137625" lon="9.905242825695582"><ele>193.5</ele><time>2026-03-23T14:55:05Z</time></trkpt><trkpt lat="44.0926962212308" lon="9.90534464158865"><ele>195.0</ele><time>2026-03-23T14:55:06Z</time></trkpt><trkpt lat="44.09267033757787" lon="9.905448625518712"><ele>196.5</ele><time>2026-03-23T14:55:07Z</time></trkpt><trkpt lat="44.09266138947332" lon="9.90556195030019"><ele>198.0</ele><time>2026-03-23T14:55:08Z</time></trkpt><trkpt lat="44.092640074808926" lon="9.905673486684687"><ele>199.5</ele><time>2026-03-23T14:55:09Z</time></trkpt><trkpt lat="44.09262000818036" lon="9.905781702209806"><ele>201.0</ele><time>2026-03-23T14:55:10Z</time></trkpt><trkpt lat="44.09260622024799" lon="9.905874151138907"><ele>199.66666666666666</ele><time>2026-03-23T14:55:11Z</time></trkpt><trkpt lat="44.09256865467751" lon="9.905966801677762"><ele>198.33333333333331</ele><time>2026-03-23T14:55:12Z</time></trkpt><trkpt lat="44.092531425841685" lon="9.906071864042927"><ele>197.0</ele><time>2026-03-23T14:55:13Z</time></trkpt><trkpt lat="44.09246313854601" lon="9.906149780061062"><ele>195.66666666666666</ele><time>2026-03-23T14:55:14Z</time></trkpt><trkpt lat="44.09238360132431" lon="9.906208124582005"><ele>194.33333333333331</ele><time>2026-03-23T14:55:15Z</time></trkpt><trkpt lat="44.092303066514226" lon="9.90625983698973"><ele>193.0</ele><time>2026-03-23T14:55:16Z</time></trkpt><trkpt lat="44.09224221545854" lon="9.906317521117519"><ele>192.4</ele><time>2026-03-23T14:55:17Z</time></trkpt><trkpt lat="44.09211148504303" lon="9.906381409721199"><ele>191.8</ele><time>2026-03-23T14:55:19Z</time></trkpt><trkpt lat="44.092036524962644" lon="9.906384548556249"><ele>191.2</ele><time>2026-03-23T14:55:20Z</time></trkpt><trkpt lat="44.09191260309094" lon="9.906422454555836"><ele>190.6</ele><time>2026-03-23T14:55:22Z</time></trkpt><trkpt lat="44.09183359167986" lon="9.906419884628642"><ele>190.0</ele><time>2026-03-23T14:55:23Z</time></trkpt><trkpt lat="44.09174638814138" lon="9.906432215398327"><ele>190.0</ele><time>2026-03-23T14:55:24Z</time></trkpt><trkpt lat="44.09168030236587" lon="9.906471520737972"><ele>190.0</ele><time>2026-03-23T14:55:25Z</time></trkpt><trkpt lat="44.09160300711709" lon="9.906536835558597"><ele>190.0</ele><time>2026-03-23T14:55:27Z</time></trkpt><trkpt lat="44.09152025324694" lon="9.906601209111995"><ele>190.0</ele><time>2026-03-23T14:55:30Z</time></trkpt><trkpt lat="44.09145405551423" lon="9.90664524408916"><ele>190.0</ele><time>2026-03-23T14:55:33Z</time></trkpt><trkpt lat="44.091534545848944" lon="9.906589461749514"><ele>190.0</ele><time>2026-03-23T14:55:41Z</time></trkpt><trkpt lat="44.09161164026898" lon="9.906531165240814"><ele>190.0</ele><time>2026-03-23T14:55:44Z</time></trkpt><trkpt lat="44.091679928076665" lon="9.906478413161855"><ele>190.0</ele><time>2026-03-23T14:55:46Z</time></trkpt><trkpt lat="44.09162292961916" lon="9.906522695429848"><ele>190.0</ele><time>2026-03-23T14:56:04Z</time></trkpt><trkpt lat="44.09155873589507" lon="9.906592148133605"><ele>190.0</ele><time>2026-03-23T14:56:06Z</time></trkpt><trkpt lat="44.09150212553683" lon="9.906631793616523"><ele>190.0</ele><time>2026-03-23T14:56:08Z</time></trkpt><trkpt lat="44.09144131709497" lon="9.906675132352147"><ele>190.0</ele><time>2026-03-23T14:56:11Z</time></trkpt><trkpt lat="44.09136072498563" lon="9.906705905043676"><ele>190.0</ele><time>2026-03-23T14:56:13Z</time></trkpt><trkpt lat="44.09125874073438" lon="9.906771440600489"><ele>185.5</ele><time>2026-03-23T14:56:15Z</time></trkpt><trkpt lat="44.09129840124923" lon="9.907146844184487"><ele>181.0</ele><time>2026-03-23T14:56:18Z</time></trkpt><trkpt lat="44.09125250265724" lon="9.907264953181938"><ele>176.5</ele><time>2026-03-23T14:56:21Z</time></trkpt><trkpt lat="44.09117768436841" lon="9.907295102249536"><ele>172.0</ele><time>2026-03-23T14:56:23Z</time></trkpt><trkpt lat="44.09112682614285" lon="9.907368056579191"><ele>172.00000000000003</ele><time>2026-03-23T14:56:26Z</time></trkpt><trkpt lat="44.09107808419289" lon="9.907444789589288"><ele>172.0</ele><time>2026-03-23T14:56:29Z</time></trkpt><trkpt lat="44.091015959900254" lon="9.90747572153836"><ele>172.0</ele><time>2026-03-23T14:56:31Z</time></trkpt><trkpt lat="44.090956699175436" lon="9.907423736077304"><ele>172.0</ele><time>2026-03-23T14:56:40Z</time></trkpt><trkpt lat="44.090882035717286" lon="9.907369722498771"><ele>172.0</ele><time>2026-03-23T14:56:44Z</time></trkpt><trkpt lat="44.09081797921835" lon="9.907320644791767"><ele>172.00000000000003</ele><time>2026-03-23T14:56:46Z</time></trkpt><trkpt lat="44.09074519171379" lon="9.907289978549"><ele>172.0</ele><time>2026-03-23T14:56:48Z</time></trkpt><trkpt lat="44.09067837865808" lon="9.907301826359276"><ele>171.5</ele><time>2026-03-23T14:56:50Z</time></trkpt><trkpt lat="44.090592690746945" lon="9.907316178899022"><ele>171.0</ele><time>2026-03-23T14:56:52Z</time></trkpt><trkpt lat="44.09050038047682" lon="9.907334452766785"><ele>170.5</ele><time>2026-03-23T14:56:54Z</time></trkpt><trkpt lat="44.09041784917268" lon="9.907360950063223"><ele>170.0</ele><time>2026-03-23T14:56:56Z</time></trkpt><trkpt lat="44.09033634205316" lon="9.907387862118203"><ele>169.5</ele><time>2026-03-23T14:56:58Z</time></trkpt><trkpt lat="44.090270814609404" lon="9.907426483415286"><ele>169.0</ele><time>2026-03-23T14:57:00Z</time></trkpt><trkpt lat="44.09020455534613" lon="9.907477996758017"><ele>169.0</ele><time>2026-03-23T14:57:02Z</time></trkpt><trkpt lat="44.090143704997914" lon="9.907524589764488"><ele>169.0</ele><time>2026-03-23T14:57:04Z</time></trkpt><trkpt lat="44.09005991200519" lon="9.907605285892659"><ele>169.0</ele><time>2026-03-23T14:57:08Z</time></trkpt><trkpt lat="44.09002625641779" lon="9.907681232064354"><ele>169.0</ele><time>2026-03-23T14:57:10Z</time></trkpt><trkpt lat="44.08999131295708" lon="9.907809101165348"><ele>169.0</ele><time>2026-03-23T14:57:12Z</time></trkpt><trkpt lat="44.08994850189215" lon="9.907920355637351"><ele>169.0</ele><time>2026-03-23T14:57:15Z</time></trkpt><trkpt lat="44.08991017274927" lon="9.907996679443691"><ele>165.83333333333334</ele><time>2026-03-23T14:58:01Z</time></trkpt><trkpt lat="44.089876564561266" lon="9.908073795798149"><ele>162.66666666666669</ele><time>2026-03-23T14:58:06Z</time></trkpt><trkpt lat="44.089803324399014" lon="9.908093454322266"><ele>159.5</ele><time>2026-03-23T14:58:12Z</time></trkpt><trkpt lat="44.08973664034568" lon="9.90807371820408"><ele>156.33333333333334</ele><time>2026-03-23T14:58:15Z</time></trkpt><trkpt lat="44.089668763632446" lon="9.908062970434008"><ele>153.16666666666666</ele><time>2026-03-23T14:58:18Z</time></trkpt><trkpt lat="44.08959060351048" lon="9.908054016256768"><ele>150.0</ele><time>2026-03-23T14:58:22Z</time></trkpt><trkpt lat="44.08949442395595" lon="9.908126804160517"><ele>150.0</ele><time>2026-03-23T14:58:25Z</time></trkpt><trkpt lat="44.08942178194758" lon="9.908183185542176"><ele>150.0</ele><time>2026-03-23T14:58:27Z</time></trkpt><trkpt lat="44.08934130830748" lon="9.908217357798824"><ele>150.0</ele><time>2026-03-23T14:58:30Z</time></trkpt><trkpt lat="44.08927027373665" lon="9.908271088420193"><ele>150.0</ele><time>2026-03-23T14:58:32Z</time></trkpt><trkpt lat="44.089189125440534" lon="9.908310253849805"><ele>150.0</ele><time>2026-03-23T14:58:34Z</time></trkpt><trkpt lat="44.089114233234326" lon="9.908370228103022"><ele>150.0</ele><time>2026-03-23T14:58:36Z</time></trkpt><trkpt lat="44.08904340383109" lon="9.908444864566695"><ele>148.33333333333334</ele><time>2026-03-23T14:58:38Z</time></trkpt><trkpt lat="44.08899074536686" lon="9.908534697684141"><ele>146.66666666666666</ele><time>2026-03-23T14:58:40Z</time></trkpt><trkpt lat="44.08895340708017" lon="9.908627174071567"><ele>145.0</ele><time>2026-03-23T14:58:42Z</time></trkpt><trkpt lat="44.088917434900125" lon="9.90871105287891"><ele>143.33333333333331</ele><time>2026-03-23T14:58:44Z</time></trkpt><trkpt lat="44.08888316667603" lon="9.908796147896979"><ele>141.66666666666666</ele><time>2026-03-23T14:58:46Z</time></trkpt><trkpt lat="44.08885063890355" lon="9.908873379170869"><ele>140.0</ele><time>2026-03-23T14:58:48Z</time></trkpt><trkpt lat="44.08875302090191" lon="9.908912050600092"><ele>140.0</ele><time>2026-03-23T14:58:50Z</time></trkpt><trkpt lat="44.08874236774748" lon="9.909012384046282"><ele>140.0</ele><time>2026-03-23T14:58:53Z</time></trkpt><trkpt lat="44.08873183602144" lon="9.909111573784923"><ele>140.0</ele><time>2026-03-23T14:58:56Z</time></trkpt><trkpt lat="44.088720579676" lon="9.909217588214663"><ele>140.0</ele><time>2026-03-23T14:59:00Z</time></trkpt><trkpt lat="44.088719026466435" lon="9.909320033944931"><ele>140.0</ele><time>2026-03-23T14:59:10Z</time></trkpt><trkpt lat="44.08904209258846" lon="9.909528793314399"><ele>139.14285714285714</ele><time>2026-03-23T14:59:18Z</time></trkpt><trkpt lat="44.08906835165721" lon="9.90943629868314"><ele>138.28571428571428</ele><time>2026-03-23T14:59:22Z</time></trkpt><trkpt lat="44.089124839019526" lon="9.909507561613067"><ele>137.42857142857144</ele><time>2026-03-23T14:59:32Z</time></trkpt><trkpt lat="44.089147165275456" lon="9.909602324499923"><ele>136.57142857142856</ele><time>2026-03-23T14:59:35Z</time></trkpt><trkpt lat="44.08919575610514" lon="9.909658718278273"><ele>135.71428571428572</ele><time>2026-03-23T14:59:43Z</time></trkpt><trkpt lat="44.08926256084304" lon="9.90969935995718"><ele>134.85714285714286</ele><time>2026-03-23T15:00:00Z</time></trkpt><trkpt lat="44.08932459162384" lon="9.9097441028415"><ele>134.0</ele><time>2026-03-23T15:00:05Z</time></trkpt><trkpt lat="44.08939651304826" lon="9.909725368169532"><ele>133.0</ele><time>2026-03-23T15:00:14Z</time></trkpt><trkpt lat="44.08945007070914" lon="9.909820249862744"><ele>132.0</ele><time>2026-03-23T15:00:17Z</time></trkpt><trkpt lat="44.08946046671497" lon="9.90991010987816"><ele>131.0</ele><time>2026-03-23T15:00:20Z</time></trkpt><trkpt lat="44.089484059455785" lon="9.910053350228388"><ele>130.0</ele><time>2026-03-23T15:00:24Z</time></trkpt><trkpt lat="44.089492417718496" lon="9.91014721875337"><ele>129.0</ele><time>2026-03-23T15:00:26Z</time></trkpt><trkpt lat="44.08949703646249" lon="9.910254540895584"><ele>128.0</ele><time>2026-03-23T15:00:30Z</time></trkpt><trkpt lat="44.08946177888231" lon="9.91034204607967"><ele>121.80000000000001</ele><time>2026-03-23T15:00:33Z</time></trkpt><trkpt lat="44.08940673801154" lon="9.910412913290854"><ele>115.60000000000001</ele><time>2026-03-23T15:00:37Z</time></trkpt><trkpt lat="44.089359434978796" lon="9.910482392961372"><ele>109.4</ele><time>2026-03-23T15:00:40Z</time></trkpt><trkpt lat="44.089309747866466" lon="9.910553778448593"><ele>103.19999999999999</ele><time>2026-03-23T15:00:43.001Z</time></trkpt><trkpt lat="44.08924645306881" lon="9.910590334372792"><ele>97.0</ele><time>2026-03-23T15:00:46.001Z</time></trkpt><trkpt lat="44.08924475748512" lon="9.910954432167982"><ele>94.8</ele><time>2026-03-23T15:00:47.001Z</time></trkpt><trkpt lat="44.089138731768976" lon="9.910969220515788"><ele>92.6</ele><time>2026-03-23T15:00:49.001Z</time></trkpt><trkpt lat="44.089073762746814" lon="9.910992394416855"><ele>90.39999999999999</ele><time>2026-03-23T15:00:52.001Z</time></trkpt><trkpt lat="44.089008998771995" lon="9.911014537778469"><ele>88.19999999999999</ele><time>2026-03-23T15:00:54.001Z</time></trkpt><trkpt lat="44.088920862282436" lon="9.911073321842915"><ele>86.0</ele><time>2026-03-23T15:00:58.001Z</time></trkpt><trkpt lat="44.08866647757185" lon="9.91104937278544"><ele>85.83333333333334</ele><time>2026-03-23T15:01:00.001Z</time></trkpt><trkpt lat="44.08860359811779" lon="9.91103353159074"><ele>85.66666666666667</ele><time>2026-03-23T15:01:03.001Z</time></trkpt><trkpt lat="44.08852707031381" lon="9.911019591107555"><ele>85.5</ele><time>2026-03-23T15:01:06.001Z</time></trkpt><trkpt lat="44.088455182748454" lon="9.91100663070855"><ele>85.33333333333333</ele><time>2026-03-23T15:01:10.001Z</time></trkpt><trkpt lat="44.08837714905269" lon="9.9110021963392"><ele>85.16666666666666</ele><time>2026-03-23T15:01:13.001Z</time></trkpt><trkpt lat="44.08831258925643" lon="9.910998527640505"><ele>85.0</ele><time>2026-03-23T15:01:16.001Z</time></trkpt><trkpt lat="44.0882331444524" lon="9.91089618801056"><ele>87.83333333333333</ele><time>2026-03-23T15:01:18.001Z</time></trkpt><trkpt lat="44.08816769936667" lon="9.910870878302315"><ele>90.66666666666666</ele><time>2026-03-23T15:01:20.001Z</time></trkpt><trkpt lat="44.08807996596276" lon="9.910845981350471"><ele>93.5</ele><time>2026-03-23T15:01:23.001Z</time></trkpt><trkpt lat="44.08800985955163" lon="9.910832888939296"><ele>96.33333333333333</ele><time>2026-03-23T15:01:34.001Z</time></trkpt><trkpt lat="44.08792800275575" lon="9.910850370499553"><ele>99.16666666666667</ele><time>2026-03-23T15:01:37.001Z</time></trkpt><trkpt lat="44.08785055241042" lon="9.91092530878689"><ele>102.0</ele><time>2026-03-23T15:01:40.001Z</time></trkpt><trkpt lat="44.08781732563842" lon="9.911057877148446"><ele>102.0</ele><time>2026-03-23T15:01:43.001Z</time></trkpt><trkpt lat="44.08778542754999" lon="9.911137138134858"><ele>102.0</ele><time>2026-03-23T15:01:45.001Z</time></trkpt><trkpt lat="44.08774101363754" lon="9.911229889452681"><ele>102.0</ele><time>2026-03-23T15:01:48.001Z</time></trkpt><trkpt lat="44.087685927106236" lon="9.911306567302582"><ele>102.0</ele><time>2026-03-23T15:01:51.001Z</time></trkpt><trkpt lat="44.08737791300878" lon="9.91108770766647"><ele>101.0</ele><time>2026-03-23T15:01:53.001Z</time></trkpt><trkpt lat="44.08729369168957" lon="9.911090503580345"><ele>100.0</ele><time>2026-03-23T15:01:55.001Z</time></trkpt><trkpt lat="44.087207228609365" lon="9.911101787421861"><ele>99.0</ele><time>2026-03-23T15:01:57.001Z</time></trkpt><trkpt lat="44.087122127409025" lon="9.91111567786765"><ele>98.0</ele><time>2026-03-23T15:01:59.001Z</time></trkpt><trkpt lat="44.08704146165665" lon="9.911110627609878"><ele>97.0</ele><time>2026-03-23T15:02:01.001Z</time></trkpt><trkpt lat="44.086968501545186" lon="9.91104677923468"><ele>96.0</ele><time>2026-03-23T15:02:03.001Z</time></trkpt><trkpt lat="44.0869037414177" lon="9.911023434821606"><ele>96.0</ele><time>2026-03-23T15:02:05.001Z</time></trkpt><trkpt lat="44.08679866704825" lon="9.910985832344798"><ele>96.0</ele><time>2026-03-23T15:02:08.001Z</time></trkpt><trkpt lat="44.08670215154351" lon="9.9109660553564"><ele>96.0</ele><time>2026-03-23T15:02:10.001Z</time></trkpt><trkpt lat="44.086591543855086" lon="9.910934573906866"><ele>96.0</ele><time>2026-03-23T15:02:12.001Z</time></trkpt><trkpt lat="44.08647214782087" lon="9.910908025974761"><ele>96.0</ele><time>2026-03-23T15:02:14.001Z</time></trkpt><trkpt lat="44.08638241669013" lon="9.910882991034423"><ele>95.66666666666667</ele><time>2026-03-23T15:02:16.001Z</time></trkpt><trkpt lat="44.08631971786612" lon="9.91085018028629"><ele>95.33333333333333</ele><time>2026-03-23T15:02:18.001Z</time></trkpt><trkpt lat="44.08628699489043" lon="9.910930985414193"><ele>95.0</ele><time>2026-03-23T15:02:20.001Z</time></trkpt><trkpt lat="44.08629892271384" lon="9.911060577900002"><ele>94.66666666666666</ele><time>2026-03-23T15:02:22.001Z</time></trkpt><trkpt lat="44.086327169876846" lon="9.911168692579906"><ele>94.33333333333333</ele><time>2026-03-23T15:02:24.001Z</time></trkpt><trkpt lat="44.08631185549908" lon="9.91127734276534"><ele>94.0</ele><time>2026-03-23T15:02:26.001Z</time></trkpt><trkpt lat="44.086275583241694" lon="9.911404025559442"><ele>94.80000000000001</ele><time>2026-03-23T15:02:28.001Z</time></trkpt><trkpt lat="44.086248566079085" lon="9.91154022490178"><ele>95.60000000000001</ele><time>2026-03-23T15:02:30.001Z</time></trkpt><trkpt lat="44.08621017825249" lon="9.911714098566074"><ele>96.4</ele><time>2026-03-23T15:02:32.001Z</time></trkpt><trkpt lat="44.08619471808071" lon="9.911812216059564"><ele>97.2</ele><time>2026-03-23T15:02:33.001Z</time></trkpt><trkpt lat="44.086178767742844" lon="9.911911099645076"><ele>98.0</ele><time>2026-03-23T15:02:34.001Z</time></trkpt><trkpt lat="44.086170778601414" lon="9.912022570455944"><ele>98.0</ele><time>2026-03-23T15:02:35.001Z</time></trkpt><trkpt lat="44.086156014174826" lon="9.91219195736822"><ele>98.0</ele><time>2026-03-23T15:02:37.001Z</time></trkpt><trkpt lat="44.086157070741486" lon="9.912291356705811"><ele>98.0</ele><time>2026-03-23T15:02:38.001Z</time></trkpt><trkpt lat="44.08616003441132" lon="9.91243300953447"><ele>98.0</ele><time>2026-03-23T15:02:39.001Z</time></trkpt><trkpt lat="44.08616232459792" lon="9.912543271460287"><ele>98.0</ele><time>2026-03-23T15:02:40.001Z</time></trkpt><trkpt lat="44.08617516025966" lon="9.91267743489335"><ele>96.66666666666666</ele><time>2026-03-23T15:02:42.001Z</time></trkpt><trkpt lat="44.08615431616082" lon="9.912800081238933"><ele>95.33333333333333</ele><time>2026-03-23T15:02:44.001Z</time></trkpt><trkpt lat="44.08609541929205" lon="9.912933030222998"><ele>94.0</ele><time>2026-03-23T15:02:46.001Z</time></trkpt><trkpt lat="44.086060268011046" lon="9.913017917294518"><ele>92.66666666666666</ele><time>2026-03-23T15:02:47.001Z</time></trkpt><trkpt lat="44.08603107031044" lon="9.913114682337573"><ele>91.33333333333333</ele><time>2026-03-23T15:02:48.001Z</time></trkpt><trkpt lat="44.086012563908646" lon="9.913217064855896"><ele>90.0</ele><time>2026-03-23T15:02:49.001Z</time></trkpt><trkpt lat="44.08600139709277" lon="9.913318762704737"><ele>88.66666666666667</ele><time>2026-03-23T15:02:50.001Z</time></trkpt><trkpt lat="44.0860053870062" lon="9.913428705038116"><ele>87.33333333333333</ele><time>2026-03-23T15:02:51.001Z</time></trkpt><trkpt lat="44.086000380666896" lon="9.913537755635456"><ele>86.0</ele><time>2026-03-23T15:02:52.001Z</time></trkpt><trkpt lat="44.08602020778344" lon="9.913656949947294"><ele>84.66666666666666</ele><time>2026-03-23T15:02:53.001Z</time></trkpt><trkpt lat="44.08605313974671" lon="9.91378479872609"><ele>83.33333333333333</ele><time>2026-03-23T15:02:54.001Z</time></trkpt><trkpt lat="44.086096365574164" lon="9.91389386973457"><ele>82.0</ele><time>2026-03-23T15:02:55.001Z</time></trkpt><trkpt lat="44.08609185498362" lon="9.914018616923853"><ele>82.0</ele><time>2026-03-23T15:02:56.001Z</time></trkpt><trkpt lat="44.08609031002047" lon="9.914143655723535"><ele>82.0</ele><time>2026-03-23T15:02:57.001Z</time></trkpt><trkpt lat="44.086043981595" lon="9.91425513783378"><ele>82.0</ele><time>2026-03-23T15:02:58.001Z</time></trkpt><trkpt lat="44.085986156515254" lon="9.914353606473831"><ele>82.0</ele><time>2026-03-23T15:02:59.001Z</time></trkpt><trkpt lat="44.08591321813745" lon="9.914440514887337"><ele>82.0</ele><time>2026-03-23T15:03:00.001Z</time></trkpt><trkpt lat="44.085831119625865" lon="9.914492582278877"><ele>81.83333333333333</ele><time>2026-03-23T15:03:01.001Z</time></trkpt><trkpt lat="44.08575534822985" lon="9.914525704709439"><ele>81.66666666666666</ele><time>2026-03-23T15:03:02.001Z</time></trkpt><trkpt lat="44.08568386385744" lon="9.91454310031259"><ele>81.5</ele><time>2026-03-23T15:03:03.001Z</time></trkpt><trkpt lat="44.08561834911449" lon="9.914553590226337"><ele>81.33333333333333</ele><time>2026-03-23T15:03:04.001Z</time></trkpt><trkpt lat="44.08553339503661" lon="9.914657833651587"><ele>81.16666666666667</ele><time>2026-03-23T15:03:06.001Z</time></trkpt><trkpt lat="44.08556266233434" lon="9.91473870825317"><ele>81.0</ele><time>2026-03-23T15:03:07.001Z</time></trkpt><trkpt lat="44.08567669322035" lon="9.91470907645646"><ele>79.8</ele><time>2026-03-23T15:03:09.001Z</time></trkpt><trkpt lat="44.085778491629874" lon="9.914677682703223"><ele>78.6</ele><time>2026-03-23T15:03:11.001Z</time></trkpt><trkpt lat="44.08589931421842" lon="9.914685085415798"><ele>77.4</ele><time>2026-03-23T15:03:13.001Z</time></trkpt><trkpt lat="44.08600344695081" lon="9.914648655948222"><ele>76.2</ele><time>2026-03-23T15:03:15.001Z</time></trkpt><trkpt lat="44.08609464570302" lon="9.914584996537252"><ele>75.0</ele><time>2026-03-23T15:03:17.001Z</time></trkpt><trkpt lat="44.08617185712458" lon="9.914527562774596"><ele>75.0</ele><time>2026-03-23T15:03:19.001Z</time></trkpt><trkpt lat="44.086247762861234" lon="9.914472939127162"><ele>75.0</ele><time>2026-03-23T15:03:21.001Z</time></trkpt><trkpt lat="44.086320395477806" lon="9.914441961834088"><ele>75.0</ele><time>2026-03-23T15:03:23.001Z</time></trkpt><trkpt lat="44.0863844574411" lon="9.91439354769358"><ele>75.0</ele><time>2026-03-23T15:03:25.001Z</time></trkpt><trkpt lat="44.08645746692129" lon="9.91433409581975"><ele>75.0</ele><time>2026-03-23T15:03:27.001Z</time></trkpt><trkpt lat="44.08653859705296" lon="9.914265081083098"><ele>75.0</ele><time>2026-03-23T15:03:29.001Z</time></trkpt><trkpt lat="44.08659614324348" lon="9.914211032587254"><ele>74.0</ele><time>2026-03-23T15:03:31.001Z</time></trkpt><trkpt lat="44.08667970432797" lon="9.914132035365181"><ele>73.0</ele><time>2026-03-23T15:03:33.001Z</time></trkpt><trkpt lat="44.086747082744466" lon="9.914132883214924"><ele>72.0</ele><time>2026-03-23T15:03:34.001Z</time></trkpt><trkpt lat="44.08681538395905" lon="9.914139611120651"><ele>71.0</ele><time>2026-03-23T15:03:35.001Z</time></trkpt><trkpt lat="44.08691579848693" lon="9.914186213825376"><ele>70.0</ele><time>2026-03-23T15:03:37.001Z</time></trkpt><trkpt lat="44.08697390710197" lon="9.914230876796905"><ele>69.0</ele><time>2026-03-23T15:03:39.001Z</time></trkpt><trkpt lat="44.08703857235025" lon="9.91430335854843"><ele>69.0</ele><time>2026-03-23T15:03:45.001Z</time></trkpt><trkpt lat="44.0871734534104" lon="9.914216156678446"><ele>69.0</ele><time>2026-03-23T15:03:47.001Z</time></trkpt><trkpt lat="44.08727995298897" lon="9.914212267038081"><ele>69.0</ele><time>2026-03-23T15:03:49.001Z</time></trkpt><trkpt lat="44.087396339029965" lon="9.914182029065572"><ele>69.0</ele><time>2026-03-23T15:03:51.001Z</time></trkpt><trkpt lat="44.087504231503615" lon="9.914129325756026"><ele>69.16666666666667</ele><time>2026-03-23T15:03:53.001Z</time></trkpt><trkpt lat="44.08755039653854" lon="9.91405949982277"><ele>69.33333333333333</ele><time>2026-03-23T15:03:54.001Z</time></trkpt><trkpt lat="44.087589620425994" lon="9.913989444991346"><ele>69.5</ele><time>2026-03-23T15:03:55.001Z</time></trkpt><trkpt lat="44.08762759611159" lon="9.913917812632144"><ele>69.66666666666666</ele><time>2026-03-23T15:03:56.001Z</time></trkpt><trkpt lat="44.0877029858066" lon="9.913773853935062"><ele>69.83333333333333</ele><time>2026-03-23T15:03:58.001Z</time></trkpt><trkpt lat="44.08774046476026" lon="9.91369795727582"><ele>70.0</ele><time>2026-03-23T15:03:59.001Z</time></trkpt><trkpt lat="44.087778343115225" lon="9.913619307348219"><ele>70.0</ele><time>2026-03-23T15:04:00.001Z</time></trkpt><trkpt lat="44.087814311320685" lon="9.913535185241106"><ele>70.0</ele><time>2026-03-23T15:04:01.001Z</time></trkpt><trkpt lat="44.087846742914756" lon="9.913449898227489"><ele>70.0</ele><time>2026-03-23T15:04:02.001Z</time></trkpt><trkpt lat="44.0878107866004" lon="9.91323288764913"><ele>70.0</ele><time>2026-03-23T15:04:04.001Z</time></trkpt><trkpt lat="44.087759128398105" lon="9.913161229551283"><ele>70.0</ele><time>2026-03-23T15:04:05.001Z</time></trkpt><trkpt lat="44.08773506031766" lon="9.913078876723645"><ele>70.0</ele><time>2026-03-23T15:04:06.001Z</time></trkpt><trkpt lat="44.08774769629418" lon="9.91290894100771"><ele>71.33333333333333</ele><time>2026-03-23T15:04:08.001Z</time></trkpt><trkpt lat="44.08779604307526" lon="9.912844499071063"><ele>72.66666666666666</ele><time>2026-03-23T15:04:09.001Z</time></trkpt><trkpt lat="44.08787723847361" lon="9.912744078072542"><ele>74.0</ele><time>2026-03-23T15:04:11.001Z</time></trkpt><trkpt lat="44.08799022984799" lon="9.91270224588672"><ele>75.33333333333333</ele><time>2026-03-23T15:04:13.001Z</time></trkpt><trkpt lat="44.08805112366515" lon="9.912666702349734"><ele>76.66666666666667</ele><time>2026-03-23T15:04:14.001Z</time></trkpt><trkpt lat="44.08810567628917" lon="9.912594652889187"><ele>78.0</ele><time>2026-03-23T15:04:15.001Z</time></trkpt><trkpt lat="44.08814187456225" lon="9.912506482012517"><ele>77.71428571428572</ele><time>2026-03-23T15:04:16.001Z</time></trkpt><trkpt lat="44.08817584291569" lon="9.912424102967234"><ele>77.42857142857142</ele><time>2026-03-23T15:04:17.001Z</time></trkpt><trkpt lat="44.08821260362092" lon="9.91234466607419"><ele>77.14285714285714</ele><time>2026-03-23T15:04:18.001Z</time></trkpt><trkpt lat="44.08824996629513" lon="9.91226310746862"><ele>76.85714285714286</ele><time>2026-03-23T15:04:19.001Z</time></trkpt><trkpt lat="44.088286284314535" lon="9.912188774101164"><ele>76.57142857142858</ele><time>2026-03-23T15:04:20.001Z</time></trkpt><trkpt lat="44.08832744690493" lon="9.912116247892333"><ele>76.28571428571428</ele><time>2026-03-23T15:04:21.001Z</time></trkpt><trkpt lat="44.08836924248414" lon="9.912046372973519"><ele>76.0</ele><time>2026-03-23T15:04:22.001Z</time></trkpt><trkpt lat="44.08841274175914" lon="9.911976418385672"><ele>76.0</ele><time>2026-03-23T15:04:23.001Z</time></trkpt><trkpt lat="44.08845557130386" lon="9.911907540840565"><ele>76.0</ele><time>2026-03-23T15:04:24.001Z</time></trkpt><trkpt lat="44.08849947147628" lon="9.911836941540487"><ele>76.0</ele><time>2026-03-23T15:04:25.001Z</time></trkpt><trkpt lat="44.088543498533944" lon="9.911766138180676"><ele>76.0</ele><time>2026-03-23T15:04:26.001Z</time></trkpt><trkpt lat="44.08858811398827" lon="9.911694388577521"><ele>76.0</ele><time>2026-03-23T15:04:27.001Z</time></trkpt><trkpt lat="44.08863146105372" lon="9.911625515078203"><ele>76.0</ele><time>2026-03-23T15:04:28.001Z</time></trkpt><trkpt lat="44.08867632257651" lon="9.911554510012873"><ele>76.0</ele><time>2026-03-23T15:04:29.001Z</time></trkpt><trkpt lat="44.08872201051417" lon="9.911482925753317"><ele>77.5</ele><time>2026-03-23T15:04:30.001Z</time></trkpt><trkpt lat="44.08876704670605" lon="9.91141248559206"><ele>79.0</ele><time>2026-03-23T15:04:31.001Z</time></trkpt><trkpt lat="44.088812647854205" lon="9.911344397247655"><ele>80.5</ele><time>2026-03-23T15:04:32.001Z</time></trkpt><trkpt lat="44.08886089601367" lon="9.911274872886022"><ele>82.0</ele><time>2026-03-23T15:04:33.001Z</time></trkpt><trkpt lat="44.08891122468447" lon="9.911208071632332"><ele>83.5</ele><time>2026-03-23T15:04:34.001Z</time></trkpt><trkpt lat="44.088959399233794" lon="9.911149925242315"><ele>85.0</ele><time>2026-03-23T15:04:35.001Z</time></trkpt><trkpt lat="44.089067659461705" lon="9.911069949635882"><ele>85.16666666666666</ele><time>2026-03-23T15:04:37.001Z</time></trkpt><trkpt lat="44.0891291676443" lon="9.911047816959115"><ele>85.33333333333333</ele><time>2026-03-23T15:04:38.001Z</time></trkpt><trkpt lat="44.08919254816596" lon="9.911010985894498"><ele>85.5</ele><time>2026-03-23T15:04:39.001Z</time></trkpt><trkpt lat="44.08926133038395" lon="9.911009477930447"><ele>85.66666666666667</ele><time>2026-03-23T15:04:40.001Z</time></trkpt><trkpt lat="44.08932522161005" lon="9.911047211030294"><ele>85.83333333333334</ele><time>2026-03-23T15:04:41.001Z</time></trkpt><trkpt lat="44.089390746880525" lon="9.911057782696046"><ele>86.0</ele><time>2026-03-23T15:04:42.001Z</time></trkpt><trkpt lat="44.08944088451568" lon="9.91121279005678"><ele>86.0</ele><time>2026-03-23T15:04:44.001Z</time></trkpt><trkpt lat="44.089429667306895" lon="9.911301820171563"><ele>86.0</ele><time>2026-03-23T15:04:45.001Z</time></trkpt><trkpt lat="44.0894143187169" lon="9.911389017925256"><ele>86.0</ele><time>2026-03-23T15:04:46.001Z</time></trkpt><trkpt lat="44.08938727517557" lon="9.91155771754054"><ele>86.0</ele><time>2026-03-23T15:04:48.001Z</time></trkpt><trkpt lat="44.0893685432869" lon="9.911729976804523"><ele>86.0</ele><time>2026-03-23T15:04:50.001Z</time></trkpt><trkpt lat="44.089347924810575" lon="9.911902406972239"><ele>86.5</ele><time>2026-03-23T15:04:52.001Z</time></trkpt><trkpt lat="44.08933192483506" lon="9.91207696384871"><ele>87.0</ele><time>2026-03-23T15:04:54.001Z</time></trkpt><trkpt lat="44.08932395145528" lon="9.912164066518427"><ele>87.5</ele><time>2026-03-23T15:04:55.001Z</time></trkpt><trkpt lat="44.08931558792222" lon="9.912253169891532"><ele>88.0</ele><time>2026-03-23T15:04:56.001Z</time></trkpt><trkpt lat="44.08930281073215" lon="9.91242758772039"><ele>88.5</ele><time>2026-03-23T15:04:58.001Z</time></trkpt><trkpt lat="44.08929806944837" lon="9.91251544217013"><ele>89.0</ele><time>2026-03-23T15:04:59.001Z</time></trkpt><trkpt lat="44.08929117187488" lon="9.912686021517896"><ele>89.6</ele><time>2026-03-23T15:05:01.001Z</time></trkpt><trkpt lat="44.08928745567142" lon="9.912848310372576"><ele>90.2</ele><time>2026-03-23T15:05:03.001Z</time></trkpt><trkpt lat="44.089272719939814" lon="9.91300515082306"><ele>90.8</ele><time>2026-03-23T15:05:05.001Z</time></trkpt><trkpt lat="44.089250334490394" lon="9.913149022519162"><ele>91.39999999999999</ele><time>2026-03-23T15:05:07.001Z</time></trkpt><trkpt lat="44.089227910271255" lon="9.91329377258762"><ele>92.0</ele><time>2026-03-23T15:05:09.001Z</time></trkpt><trkpt lat="44.08920639070859" lon="9.91343784258274"><ele>92.0</ele><time>2026-03-23T15:05:11.001Z</time></trkpt><trkpt lat="44.08919258265998" lon="9.91358133803353"><ele>92.0</ele><time>2026-03-23T15:05:13.001Z</time></trkpt><trkpt lat="44.08921138360147" lon="9.913729144132882"><ele>92.0</ele><time>2026-03-23T15:05:15.001Z</time></trkpt><trkpt lat="44.08927374890988" lon="9.913857017664288"><ele>92.0</ele><time>2026-03-23T15:05:17.001Z</time></trkpt><trkpt lat="44.08936139664841" lon="9.913955304480062"><ele>92.0</ele><time>2026-03-23T15:05:19.001Z</time></trkpt><trkpt lat="44.089448463742876" lon="9.914046177799692"><ele>92.0</ele><time>2026-03-23T15:05:21.001Z</time></trkpt><trkpt lat="44.089540184712284" lon="9.914133578384257"><ele>92.0</ele><time>2026-03-23T15:05:23.001Z</time></trkpt><trkpt lat="44.08963530791631" lon="9.914230714069042"><ele>92.0</ele><time>2026-03-23T15:05:25.001Z</time></trkpt><trkpt lat="44.08972777585594" lon="9.91433457166577"><ele>92.0</ele><time>2026-03-23T15:05:27.001Z</time></trkpt><trkpt lat="44.089822134489715" lon="9.914436355485373"><ele>89.75</ele><time>2026-03-23T15:05:29.001Z</time></trkpt><trkpt lat="44.08991823611609" lon="9.914539678142068"><ele>87.5</ele><time>2026-03-23T15:05:31.001Z</time></trkpt><trkpt lat="44.090011287510116" lon="9.91464371241564"><ele>85.25</ele><time>2026-03-23T15:05:33.001Z</time></trkpt><trkpt lat="44.09011133761189" lon="9.91474201279358"><ele>83.0</ele><time>2026-03-23T15:05:35.001Z</time></trkpt><trkpt lat="44.09020718232606" lon="9.914843071528841"><ele>85.5</ele><time>2026-03-23T15:05:37.001Z</time></trkpt><trkpt lat="44.09030618800215" lon="9.914942384602638"><ele>88.0</ele><time>2026-03-23T15:05:39.001Z</time></trkpt><trkpt lat="44.090400943475096" lon="9.915038617449097"><ele>90.5</ele><time>2026-03-23T15:05:41.001Z</time></trkpt><trkpt lat="44.09048106645424" lon="9.915149858723273"><ele>93.0</ele><time>2026-03-23T15:05:43.001Z</time></trkpt><trkpt lat="44.0905594152455" lon="9.9152664660185"><ele>93.0</ele><time>2026-03-23T15:05:45.001Z</time></trkpt><trkpt lat="44.090612711233426" lon="9.915413719153854"><ele>93.0</ele><time>2026-03-23T15:05:47.001Z</time></trkpt><trkpt lat="44.09064918808602" lon="9.9155711937575"><ele>93.0</ele><time>2026-03-23T15:05:49.001Z</time></trkpt><trkpt lat="44.09068366839623" lon="9.915720209556207"><ele>93.0</ele><time>2026-03-23T15:05:51.001Z</time></trkpt><trkpt lat="44.09072726214507" lon="9.915874637622693"><ele>92.0</ele><time>2026-03-23T15:05:53.001Z</time></trkpt><trkpt lat="44.09079793096106" lon="9.915996814209871"><ele>91.0</ele><time>2026-03-23T15:05:55.001Z</time></trkpt><trkpt lat="44.09090363212017" lon="9.91607573096423"><ele>90.0</ele><time>2026-03-23T15:05:57.001Z</time></trkpt><trkpt lat="44.091022752448275" lon="9.916116024153158"><ele>89.0</ele><time>2026-03-23T15:05:59.001Z</time></trkpt><trkpt lat="44.091141624142196" lon="9.916154389324143"><ele>89.0</ele><time>2026-03-23T15:06:01.001Z</time></trkpt><trkpt lat="44.09126039167884" lon="9.916193178693643"><ele>89.0</ele><time>2026-03-23T15:06:03.001Z</time></trkpt><trkpt lat="44.091377110540826" lon="9.916213872924022"><ele>89.0</ele><time>2026-03-23T15:06:05.001Z</time></trkpt><trkpt lat="44.091497822796455" lon="9.91623103182936"><ele>89.0</ele><time>2026-03-23T15:06:07.001Z</time></trkpt><trkpt lat="44.09161699407156" lon="9.916256064410494"><ele>93.0</ele><time>2026-03-23T15:06:09Z</time></trkpt><trkpt lat="44.09173723292183" lon="9.916281794400962"><ele>97.0</ele><time>2026-03-23T15:06:11Z</time></trkpt><trkpt lat="44.09185432884235" lon="9.916291665706757"><ele>101.0</ele><time>2026-03-23T15:06:13Z</time></trkpt><trkpt lat="44.09197257184062" lon="9.91627642378832"><ele>105.0</ele><time>2026-03-23T15:06:15Z</time></trkpt><trkpt lat="44.09207654800984" lon="9.916190726204247"><ele>105.0</ele><time>2026-03-23T15:06:16.999Z</time></trkpt><trkpt lat="44.09213481010904" lon="9.916149440555607"><ele>105.0</ele><time>2026-03-23T15:06:17.999Z</time></trkpt><trkpt lat="44.09218349432025" lon="9.91608197420564"><ele>105.0</ele><time>2026-03-23T15:06:18.999Z</time></trkpt><trkpt lat="44.09223277724245" lon="9.916006078524738"><ele>105.0</ele><time>2026-03-23T15:06:19.999Z</time></trkpt><trkpt lat="44.092280175228005" lon="9.91593056015588"><ele>105.0</ele><time>2026-03-23T15:06:20.999Z</time></trkpt><trkpt lat="44.0923267235531" lon="9.915860376348773"><ele>105.0</ele><time>2026-03-23T15:06:21.999Z</time></trkpt><trkpt lat="44.092374887139584" lon="9.915793474100704"><ele>105.0</ele><time>2026-03-23T15:06:22.999Z</time></trkpt><trkpt lat="44.09242379539048" lon="9.915726674380721"><ele>108.0</ele><time>2026-03-23T15:06:23.999Z</time></trkpt><trkpt lat="44.0924735248236" lon="9.915661744795434"><ele>111.0</ele><time>2026-03-23T15:06:24.999Z</time></trkpt><trkpt lat="44.09252368758259" lon="9.915601514133144"><ele>114.0</ele><time>2026-03-23T15:06:25.999Z</time></trkpt><trkpt lat="44.09257755029521" lon="9.915544114046906"><ele>117.0</ele><time>2026-03-23T15:06:26.999Z</time></trkpt><trkpt lat="44.09263666280627" lon="9.915488815607391"><ele>120.0</ele><time>2026-03-23T15:06:27.999Z</time></trkpt><trkpt lat="44.09269718244043" lon="9.91544039608409"><ele>123.0</ele><time>2026-03-23T15:06:28.999Z</time></trkpt><trkpt lat="44.09275938671024" lon="9.915389049009066"><ele>126.0</ele><time>2026-03-23T15:06:29.999Z</time></trkpt><trkpt lat="44.09282116508099" lon="9.91533109691536"><ele>126.0</ele><time>2026-03-23T15:06:30.999Z</time></trkpt><trkpt lat="44.092880806643535" lon="9.915271557541498"><ele>126.0</ele><time>2026-03-23T15:06:31.999Z</time></trkpt><trkpt lat="44.09293980969574" lon="9.91521781611491"><ele>126.0</ele><time>2026-03-23T15:06:32.999Z</time></trkpt><trkpt lat="44.09300082200802" lon="9.915158803263571"><ele>126.0</ele><time>2026-03-23T15:06:33.999Z</time></trkpt><trkpt lat="44.09307962924873" lon="9.915149299866181"><ele>126.0</ele><time>2026-03-23T15:06:34.999Z</time></trkpt><trkpt lat="44.0931557549128" lon="9.915166680415956"><ele>126.0</ele><time>2026-03-23T15:06:35.999Z</time></trkpt><trkpt lat="44.0932230970908" lon="9.915206324359387"><ele>126.0</ele><time>2026-03-23T15:06:36.999Z</time></trkpt><trkpt lat="44.09328784994966" lon="9.915243312528046"><ele>123.57142857142857</ele><time>2026-03-23T15:06:37.999Z</time></trkpt><trkpt lat="44.09335468056302" lon="9.915265420583093"><ele>121.14285714285714</ele><time>2026-03-23T15:06:38.999Z</time></trkpt><trkpt lat="44.09342206726673" lon="9.915288181633118"><ele>118.71428571428572</ele><time>2026-03-23T15:06:39.999Z</time></trkpt><trkpt lat="44.09348715013958" lon="9.915276049879102"><ele>116.28571428571428</ele><time>2026-03-23T15:06:40.999Z</time></trkpt><trkpt lat="44.0935507551934" lon="9.915251702046216"><ele>113.85714285714286</ele><time>2026-03-23T15:06:41.999Z</time></trkpt><trkpt lat="44.09361258257438" lon="9.915228446642455"><ele>111.42857142857143</ele><time>2026-03-23T15:06:42.999Z</time></trkpt><trkpt lat="44.09367481095414" lon="9.915205040381174"><ele>109.0</ele><time>2026-03-23T15:06:43.999Z</time></trkpt><trkpt lat="44.09373798935458" lon="9.915180440517359"><ele>109.0</ele><time>2026-03-23T15:06:44.999Z</time></trkpt><trkpt lat="44.09380024627356" lon="9.915155907064598"><ele>109.0</ele><time>2026-03-23T15:06:45.999Z</time></trkpt><trkpt lat="44.09390696379925" lon="9.915087874670487"><ele>109.0</ele><time>2026-03-23T15:06:47.999Z</time></trkpt><trkpt lat="44.094020809463835" lon="9.915051732943676"><ele>109.0</ele><time>2026-03-23T15:06:49.999Z</time></trkpt><trkpt lat="44.09412640987835" lon="9.914967091104913"><ele>109.0</ele><time>2026-03-23T15:06:51.999Z</time></trkpt><trkpt lat="44.094216837287576" lon="9.914852894443115"><ele>115.25</ele><time>2026-03-23T15:06:53.999Z</time></trkpt><trkpt lat="44.09429942842386" lon="9.914741562779152"><ele>121.5</ele><time>2026-03-23T15:06:55.999Z</time></trkpt><trkpt lat="44.094399210360265" lon="9.914671161399209"><ele>127.75</ele><time>2026-03-23T15:06:57.999Z</time></trkpt><trkpt lat="44.09451354565112" lon="9.914722899567536"><ele>134.0</ele><time>2026-03-23T15:07:00Z</time></trkpt><trkpt lat="44.09459424003508" lon="9.91484857072312"><ele>134.0</ele><time>2026-03-23T15:07:02Z</time></trkpt><trkpt lat="44.09468100717424" lon="9.914938880010531"><ele>134.0</ele><time>2026-03-23T15:07:04Z</time></trkpt><trkpt lat="44.09476880745576" lon="9.915010701147946"><ele>134.0</ele><time>2026-03-23T15:07:06Z</time></trkpt><trkpt lat="44.0948425787361" lon="9.915071411090025"><ele>134.0</ele><time>2026-03-23T15:07:08Z</time></trkpt><trkpt lat="44.094910679444915" lon="9.915128515151567"><ele>134.0</ele><time>2026-03-23T15:07:10Z</time></trkpt><trkpt lat="44.094975253087675" lon="9.915171152779163"><ele>134.0</ele><time>2026-03-23T15:07:12Z</time></trkpt><trkpt lat="44.09503600697106" lon="9.915197561027345"><ele>133.16666666666666</ele><time>2026-03-23T15:07:14Z</time></trkpt><trkpt lat="44.09511705952802" lon="9.915223530388777"><ele>132.33333333333331</ele><time>2026-03-23T15:07:16Z</time></trkpt><trkpt lat="44.09520808465672" lon="9.915245752089588"><ele>131.5</ele><time>2026-03-23T15:07:18Z</time></trkpt><trkpt lat="44.09529558039553" lon="9.915277887663002"><ele>130.66666666666666</ele><time>2026-03-23T15:07:20Z</time></trkpt><trkpt lat="44.09537855794704" lon="9.915329773070086"><ele>129.83333333333334</ele><time>2026-03-23T15:07:22Z</time></trkpt><trkpt lat="44.0954514952773" lon="9.915397528728382"><ele>129.0</ele><time>2026-03-23T15:07:24Z</time></trkpt><trkpt lat="44.09550240901019" lon="9.915495771012472"><ele>129.0</ele><time>2026-03-23T15:07:26Z</time></trkpt><trkpt lat="44.095521056113085" lon="9.915623308457022"><ele>129.0</ele><time>2026-03-23T15:07:28Z</time></trkpt><trkpt lat="44.09550638913302" lon="9.915746450403368"><ele>129.0</ele><time>2026-03-23T15:07:30Z</time></trkpt><trkpt lat="44.09549892830287" lon="9.915872562458233"><ele>129.0</ele><time>2026-03-23T15:07:32Z</time></trkpt><trkpt lat="44.09548576526963" lon="9.915994508621582"><ele>129.0</ele><time>2026-03-23T15:07:33.999Z</time></trkpt><trkpt lat="44.0954682647216" lon="9.91612140801871"><ele>129.0</ele><time>2026-03-23T15:07:35.999Z</time></trkpt><trkpt lat="44.095465631496275" lon="9.916232599641047"><ele>129.0</ele><time>2026-03-23T15:07:37.999Z</time></trkpt><trkpt lat="44.09548562175989" lon="9.916365031548592"><ele>129.0</ele><time>2026-03-23T15:07:40.999Z</time></trkpt><trkpt lat="44.09553114362925" lon="9.916459421059459"><ele>129.0</ele><time>2026-03-23T15:07:42.999Z</time></trkpt><trkpt lat="44.095612070991606" lon="9.916478284170779"><ele>129.0</ele><time>2026-03-23T15:07:44.999Z</time></trkpt><trkpt lat="44.09569506215656" lon="9.91645016542275"><ele>129.0</ele><time>2026-03-23T15:07:46.999Z</time></trkpt><trkpt lat="44.095729470398936" lon="9.916321230186146"><ele>129.0</ele><time>2026-03-23T15:07:48.999Z</time></trkpt><trkpt lat="44.09573858376712" lon="9.916190795507053"><ele>129.0</ele><time>2026-03-23T15:07:50.999Z</time></trkpt><trkpt lat="44.09576358911021" lon="9.916052121155621"><ele>129.0</ele><time>2026-03-23T15:07:52.999Z</time></trkpt><trkpt lat="44.0957735568977" lon="9.915917680374228"><ele>129.0</ele><time>2026-03-23T15:07:54.999Z</time></trkpt><trkpt lat="44.09577939194898" lon="9.915785022514225"><ele>129.0</ele><time>2026-03-23T15:07:56.999Z</time></trkpt><trkpt lat="44.09583270413332" lon="9.91567954425684"><ele>133.2</ele><time>2026-03-23T15:07:58.999Z</time></trkpt><trkpt lat="44.09593068073499" lon="9.915669060479912"><ele>137.4</ele><time>2026-03-23T15:08:00.999Z</time></trkpt><trkpt lat="44.09599694974167" lon="9.91577363448286"><ele>141.6</ele><time>2026-03-23T15:08:02.999Z</time></trkpt><trkpt lat="44.09605952765064" lon="9.915868651477291"><ele>145.8</ele><time>2026-03-23T15:08:04.999Z</time></trkpt><trkpt lat="44.09612292182245" lon="9.915953173730452"><ele>150.0</ele><time>2026-03-23T15:08:06.999Z</time></trkpt><trkpt lat="44.096180315486926" lon="9.916056066066226"><ele>150.0</ele><time>2026-03-23T15:08:08.999Z</time></trkpt><trkpt lat="44.096241109639266" lon="9.91615574336065"><ele>150.0</ele><time>2026-03-23T15:08:10.999Z</time></trkpt><trkpt lat="44.09629982158505" lon="9.916251662267953"><ele>150.0</ele><time>2026-03-23T15:08:12.999Z</time></trkpt><trkpt lat="44.09637303634183" lon="9.916327863407409"><ele>150.0</ele><time>2026-03-23T15:08:14.999Z</time></trkpt><trkpt lat="44.09646433425478" lon="9.916350937188675"><ele>150.0</ele><time>2026-03-23T15:08:16.999Z</time></trkpt><trkpt lat="44.09656045989094" lon="9.916346095314735"><ele>152.2</ele><time>2026-03-23T15:08:18.999Z</time></trkpt><trkpt lat="44.09665094778198" lon="9.916263738662481"><ele>154.4</ele><time>2026-03-23T15:08:20.999Z</time></trkpt><trkpt lat="44.09670483447489" lon="9.916167999113906"><ele>156.60000000000002</ele><time>2026-03-23T15:08:22.999Z</time></trkpt><trkpt lat="44.096787149667875" lon="9.91608973259761"><ele>158.8</ele><time>2026-03-23T15:08:24.999Z</time></trkpt><trkpt lat="44.09684840602022" lon="9.916004998690736"><ele>161.0</ele><time>2026-03-23T15:08:26.999Z</time></trkpt><trkpt lat="44.09690881305082" lon="9.915910266584945"><ele>162.4</ele><time>2026-03-23T15:08:28.999Z</time></trkpt><trkpt lat="44.096956612885414" lon="9.91578728948837"><ele>163.8</ele><time>2026-03-23T15:08:30.999Z</time></trkpt><trkpt lat="44.096986387532375" lon="9.91566846809231"><ele>165.20000000000002</ele><time>2026-03-23T15:08:32.999Z</time></trkpt><trkpt lat="44.09702105508079" lon="9.915553961201386"><ele>166.60000000000002</ele><time>2026-03-23T15:08:34.999Z</time></trkpt><trkpt lat="44.09706479229487" lon="9.91544037273555"><ele>168.0</ele><time>2026-03-23T15:08:36.999Z</time></trkpt><trkpt lat="44.09713919617396" lon="9.915331326740036"><ele>168.0</ele><time>2026-03-23T15:08:38.999Z</time></trkpt><trkpt lat="44.097223944172114" lon="9.915233475267522"><ele>168.0</ele><time>2026-03-23T15:08:40.999Z</time></trkpt><trkpt lat="44.097328784194914" lon="9.915200817318617"><ele>168.0</ele><time>2026-03-23T15:08:42.999Z</time></trkpt><trkpt lat="44.09744479478285" lon="9.915150829212534"><ele>168.0</ele><time>2026-03-23T15:08:44.999Z</time></trkpt><trkpt lat="44.0975444182195" lon="9.915091743991681"><ele>168.0</ele><time>2026-03-23T15:08:46.999Z</time></trkpt><trkpt lat="44.097658318909076" lon="9.915056718918748"><ele>173.0</ele><time>2026-03-23T15:08:48.999Z</time></trkpt><trkpt lat="44.09777977326473" lon="9.91503002990044"><ele>178.0</ele><time>2026-03-23T15:08:50.999Z</time></trkpt><trkpt lat="44.09789751909258" lon="9.914996261300258"><ele>183.0</ele><time>2026-03-23T15:08:52.999Z</time></trkpt><trkpt lat="44.09801544907863" lon="9.914963681301467"><ele>188.0</ele><time>2026-03-23T15:08:54.999Z</time></trkpt><trkpt lat="44.09813931522406" lon="9.91493263857478"><ele>188.0</ele><time>2026-03-23T15:08:56.999Z</time></trkpt><trkpt lat="44.098205369445246" lon="9.914909875569535"><ele>188.0</ele><time>2026-03-23T15:08:57.999Z</time></trkpt><trkpt lat="44.09827181887454" lon="9.914895028989292"><ele>188.0</ele><time>2026-03-23T15:08:58.999Z</time></trkpt><trkpt lat="44.098389731774105" lon="9.914893922686066"><ele>188.0</ele><time>2026-03-23T15:09:00.999Z</time></trkpt><trkpt lat="44.09851058712212" lon="9.914898884163467"><ele>188.0</ele><time>2026-03-23T15:09:02.999Z</time></trkpt><trkpt lat="44.09862915464177" lon="9.91490939607511"><ele>186.2</ele><time>2026-03-23T15:09:04.999Z</time></trkpt><trkpt lat="44.09873894622779" lon="9.9148974219464"><ele>184.4</ele><time>2026-03-23T15:09:06.999Z</time></trkpt><trkpt lat="44.098855567672395" lon="9.914875596803098"><ele>182.6</ele><time>2026-03-23T15:09:08.999Z</time></trkpt><trkpt lat="44.0989201262766" lon="9.914871510604165"><ele>180.79999999999998</ele><time>2026-03-23T15:09:09.999Z</time></trkpt><trkpt lat="44.099027221202725" lon="9.914923264330458"><ele>179.0</ele><time>2026-03-23T15:09:11.999Z</time></trkpt><trkpt lat="44.099090145251346" lon="9.914969124248872"><ele>178.2857142857143</ele><time>2026-03-23T15:09:12.999Z</time></trkpt><trkpt lat="44.09915241506114" lon="9.915006826760107"><ele>177.57142857142858</ele><time>2026-03-23T15:09:13.999Z</time></trkpt><trkpt lat="44.099214832375786" lon="9.915042070995696"><ele>176.85714285714286</ele><time>2026-03-23T15:09:14.999Z</time></trkpt><trkpt lat="44.099277515865865" lon="9.915077465549688"><ele>176.14285714285717</ele><time>2026-03-23T15:09:15.999Z</time></trkpt><trkpt lat="44.09934256359026" lon="9.915114195113858"><ele>175.42857142857144</ele><time>2026-03-23T15:09:16.999Z</time></trkpt><trkpt lat="44.09940620095825" lon="9.915150128316201"><ele>174.71428571428572</ele><time>2026-03-23T15:09:17.999Z</time></trkpt><trkpt lat="44.099468956632144" lon="9.915187053072103"><ele>174.0</ele><time>2026-03-23T15:09:18.999Z</time></trkpt><trkpt lat="44.09953135691514" lon="9.915224002692723"><ele>174.0</ele><time>2026-03-23T15:09:19.999Z</time></trkpt><trkpt lat="44.099646771070695" lon="9.915291620813719"><ele>174.0</ele><time>2026-03-23T15:09:21.999Z</time></trkpt><trkpt lat="44.09970526973018" lon="9.91532462577187"><ele>174.0</ele><time>2026-03-23T15:09:22.999Z</time></trkpt><trkpt lat="44.09981073556754" lon="9.915386405663243"><ele>174.0</ele><time>2026-03-23T15:09:24.999Z</time></trkpt><trkpt lat="44.09991325753014" lon="9.915449640111644"><ele>174.0</ele><time>2026-03-23T15:09:26.999Z</time></trkpt><trkpt lat="44.0999683555194" lon="9.915590706189109"><ele>174.0</ele><time>2026-03-23T15:09:28.999Z</time></trkpt><trkpt lat="44.0999654393499" lon="9.915753837761883"><ele>174.0</ele><time>2026-03-23T15:09:30.999Z</time></trkpt><trkpt lat="44.099959638784874" lon="9.915920310287254"><ele>174.0</ele><time>2026-03-23T15:09:32.999Z</time></trkpt><trkpt lat="44.09995603168542" lon="9.916009220608741"><ele>174.0</ele><time>2026-03-23T15:09:33.999Z</time></trkpt><trkpt lat="44.09995957677896" lon="9.916186756132618"><ele>174.0</ele><time>2026-03-23T15:09:35.999Z</time></trkpt><trkpt lat="44.0999885986084" lon="9.916351738252956"><ele>172.39999999999998</ele><time>2026-03-23T15:09:37.999Z</time></trkpt><trkpt lat="44.100025768292895" lon="9.916513258393524"><ele>170.8</ele><time>2026-03-23T15:09:39.999Z</time></trkpt><trkpt lat="44.10005783896609" lon="9.91666929775297"><ele>169.2</ele><time>2026-03-23T15:09:41.999Z</time></trkpt><trkpt lat="44.10007926747982" lon="9.916807750141059"><ele>167.60000000000002</ele><time>2026-03-23T15:09:43.999Z</time></trkpt><trkpt lat="44.1001064411172" lon="9.916938736250334"><ele>166.0</ele><time>2026-03-23T15:09:45.999Z</time></trkpt><trkpt lat="44.10013129057924" lon="9.917054512762922"><ele>164.4</ele><time>2026-03-23T15:09:47.999Z</time></trkpt><trkpt lat="44.10016240461885" lon="9.917169057295997"><ele>162.8</ele><time>2026-03-23T15:09:49.999Z</time></trkpt><trkpt lat="44.100210352138426" lon="9.917273446673184"><ele>161.20000000000002</ele><time>2026-03-23T15:09:51.999Z</time></trkpt><trkpt lat="44.1002857870748" lon="9.917343610469656"><ele>159.60000000000002</ele><time>2026-03-23T15:09:53.999Z</time></trkpt><trkpt lat="44.100373735852585" lon="9.917356338805252"><ele>158.0</ele><time>2026-03-23T15:09:55.999Z</time></trkpt><trkpt lat="44.10047321033409" lon="9.917356421846902"><ele>158.0</ele><time>2026-03-23T15:09:57.999Z</time></trkpt><trkpt lat="44.100567030824784" lon="9.917385469627114"><ele>158.0</ele><time>2026-03-23T15:09:59.999Z</time></trkpt><trkpt lat="44.10065982460161" lon="9.917413067180163"><ele>158.0</ele><time>2026-03-23T15:10:01.999Z</time></trkpt><trkpt lat="44.10075568233294" lon="9.917470545937897"><ele>158.0</ele><time>2026-03-23T15:10:03.999Z</time></trkpt><trkpt lat="44.10083491234639" lon="9.917542206663692"><ele>158.0</ele><time>2026-03-23T15:10:05.999Z</time></trkpt><trkpt lat="44.10091017695753" lon="9.91759863996148"><ele>156.66666666666666</ele><time>2026-03-23T15:10:07.999Z</time></trkpt><trkpt lat="44.10101976339873" lon="9.917660570176976"><ele>155.33333333333331</ele><time>2026-03-23T15:10:09.999Z</time></trkpt><trkpt lat="44.1010926366669" lon="9.91767820601436"><ele>154.0</ele><time>2026-03-23T15:10:10.999Z</time></trkpt><trkpt lat="44.10116287198536" lon="9.91768869520835"><ele>152.66666666666666</ele><time>2026-03-23T15:10:11.999Z</time></trkpt><trkpt lat="44.101236122261085" lon="9.91769785626976"><ele>151.33333333333334</ele><time>2026-03-23T15:10:12.999Z</time></trkpt><trkpt lat="44.10131175425779" lon="9.917712139990979"><ele>150.0</ele><time>2026-03-23T15:10:13.999Z</time></trkpt><trkpt lat="44.10138716339797" lon="9.91774523208182"><ele>150.0</ele><time>2026-03-23T15:10:14.999Z</time></trkpt><trkpt lat="44.101468655650415" lon="9.91776714104873"><ele>150.0</ele><time>2026-03-23T15:10:15.999Z</time></trkpt><trkpt lat="44.10154735547915" lon="9.917814743930496"><ele>150.0</ele><time>2026-03-23T15:10:16.999Z</time></trkpt><trkpt lat="44.10162662257057" lon="9.917857649861489"><ele>150.0</ele><time>2026-03-23T15:10:17.999Z</time></trkpt><trkpt lat="44.101701833289425" lon="9.917917683403905"><ele>150.0</ele><time>2026-03-23T15:10:18.999Z</time></trkpt><trkpt lat="44.10178248306817" lon="9.917953606901829"><ele>150.0</ele><time>2026-03-23T15:10:19.999Z</time></trkpt><trkpt lat="44.101860930677034" lon="9.918000966289984"><ele>153.4</ele><time>2026-03-23T15:10:20.999Z</time></trkpt><trkpt lat="44.10194252566815" lon="9.918048753926033"><ele>156.8</ele><time>2026-03-23T15:10:21.999Z</time></trkpt><trkpt lat="44.10202372726054" lon="9.918059772695134"><ele>160.2</ele><time>2026-03-23T15:10:22.999Z</time></trkpt><trkpt lat="44.1020901523595" lon="9.918096410930096"><ele>163.6</ele><time>2026-03-23T15:10:23.999Z</time></trkpt><trkpt lat="44.102207007227406" lon="9.918103820014835"><ele>167.0</ele><time>2026-03-23T15:10:25.999Z</time></trkpt><trkpt lat="44.10231708587531" lon="9.918111148573047"><ele>170.2</ele><time>2026-03-23T15:10:27.999Z</time></trkpt><trkpt lat="44.10241974988124" lon="9.918120305865601"><ele>173.39999999999998</ele><time>2026-03-23T15:10:29.999Z</time></trkpt><trkpt lat="44.102506340727224" lon="9.918195696592775"><ele>176.60000000000002</ele><time>2026-03-23T15:10:31.999Z</time></trkpt><trkpt lat="44.10255451125543" lon="9.918301281017355"><ele>179.8</ele><time>2026-03-23T15:10:33.999Z</time></trkpt><trkpt lat="44.10259720202631" lon="9.918390440975553"><ele>183.0</ele><time>2026-03-23T15:10:35.999Z</time></trkpt><trkpt lat="44.10263510179918" lon="9.918486132703736"><ele>183.33333333333334</ele><time>2026-03-23T15:10:37.999Z</time></trkpt><trkpt lat="44.102679358610644" lon="9.91858341764967"><ele>183.66666666666666</ele><time>2026-03-23T15:10:39.999Z</time></trkpt><trkpt lat="44.102724334112224" lon="9.918683409865416"><ele>184.0</ele><time>2026-03-23T15:10:41.999Z</time></trkpt><trkpt lat="44.10276212446734" lon="9.91878179521604"><ele>184.33333333333331</ele><time>2026-03-23T15:10:43.999Z</time></trkpt><trkpt lat="44.10280183977849" lon="9.918877446922757"><ele>184.66666666666666</ele><time>2026-03-23T15:10:45.999Z</time></trkpt><trkpt lat="44.10284360743864" lon="9.918980020952526"><ele>185.0</ele><time>2026-03-23T15:10:47.999Z</time></trkpt><trkpt lat="44.102880379221446" lon="9.919094285497279"><ele>185.0</ele><time>2026-03-23T15:10:49.999Z</time></trkpt><trkpt lat="44.10292557116105" lon="9.919211138741181"><ele>185.0</ele><time>2026-03-23T15:10:51.999Z</time></trkpt><trkpt lat="44.102961615529615" lon="9.91936121143761"><ele>185.0</ele><time>2026-03-23T15:10:53.999Z</time></trkpt><trkpt lat="44.102938632660866" lon="9.919448514691368"><ele>185.0</ele><time>2026-03-23T15:10:54.999Z</time></trkpt><trkpt lat="44.102943750817495" lon="9.919548221605673"><ele>185.0</ele><time>2026-03-23T15:10:55.999Z</time></trkpt><trkpt lat="44.10293413622415" lon="9.919652306685606"><ele>185.0</ele><time>2026-03-23T15:10:56.999Z</time></trkpt><trkpt lat="44.10291246342406" lon="9.919756327455332"><ele>184.66666666666666</ele><time>2026-03-23T15:10:57.999Z</time></trkpt><trkpt lat="44.102885886874446" lon="9.919852291540007"><ele>184.33333333333331</ele><time>2026-03-23T15:10:58.999Z</time></trkpt><trkpt lat="44.10287227675998" lon="9.91996781264024"><ele>184.0</ele><time>2026-03-23T15:10:59.999Z</time></trkpt><trkpt lat="44.10289995598554" lon="9.920091624285202"><ele>183.66666666666666</ele><time>2026-03-23T15:11:00.999Z</time></trkpt><trkpt lat="44.10291031621283" lon="9.920213991325063"><ele>183.33333333333334</ele><time>2026-03-23T15:11:01.999Z</time></trkpt><trkpt lat="44.10291535298474" lon="9.920330351559027"><ele>183.0</ele><time>2026-03-23T15:11:02.999Z</time></trkpt><trkpt lat="44.102906253507044" lon="9.92045330156055"><ele>183.0</ele><time>2026-03-23T15:11:03.999Z</time></trkpt><trkpt lat="44.10290387196337" lon="9.920562280921468"><ele>183.0</ele><time>2026-03-23T15:11:04.999Z</time></trkpt><trkpt lat="44.10288883438406" lon="9.920675056550037"><ele>183.0</ele><time>2026-03-23T15:11:05.999Z</time></trkpt><trkpt lat="44.10290330037033" lon="9.920799097615644"><ele>183.0</ele><time>2026-03-23T15:11:06.999Z</time></trkpt><trkpt lat="44.102935194645305" lon="9.92092238203934"><ele>183.0</ele><time>2026-03-23T15:11:07.999Z</time></trkpt><trkpt lat="44.10297850865238" lon="9.921042422611317"><ele>183.0</ele><time>2026-03-23T15:11:08.999Z</time></trkpt><trkpt lat="44.10301831971664" lon="9.921145576420294"><ele>182.57142857142858</ele><time>2026-03-23T15:11:09.999Z</time></trkpt><trkpt lat="44.1030551856749" lon="9.921237331342144"><ele>182.14285714285717</ele><time>2026-03-23T15:11:10.999Z</time></trkpt><trkpt lat="44.103102741243774" lon="9.92131241407418"><ele>181.71428571428572</ele><time>2026-03-23T15:11:11.999Z</time></trkpt><trkpt lat="44.10313550206996" lon="9.921399700450678"><ele>181.28571428571428</ele><time>2026-03-23T15:11:12.999Z</time></trkpt><trkpt lat="44.1031659441534" lon="9.921492186364507"><ele>180.85714285714286</ele><time>2026-03-23T15:11:13.999Z</time></trkpt><trkpt lat="44.10319339164298" lon="9.921586539354882"><ele>180.42857142857142</ele><time>2026-03-23T15:11:14.999Z</time></trkpt><trkpt lat="44.10318632101813" lon="9.921691040077286"><ele>180.0</ele><time>2026-03-23T15:11:15.999Z</time></trkpt><trkpt lat="44.10320334612168" lon="9.921788735308713"><ele>179.0</ele><time>2026-03-23T15:11:16.999Z</time></trkpt><trkpt lat="44.1032282736561" lon="9.92188455673739"><ele>178.0</ele><time>2026-03-23T15:11:17.999Z</time></trkpt><trkpt lat="44.10327532519959" lon="9.921974266352413"><ele>177.0</ele><time>2026-03-23T15:11:18.999Z</time></trkpt><trkpt lat="44.103309185880434" lon="9.922072718541145"><ele>176.0</ele><time>2026-03-23T15:11:19.999Z</time></trkpt><trkpt lat="44.10332850827131" lon="9.922176910449442"><ele>175.0</ele><time>2026-03-23T15:11:20.999Z</time></trkpt><trkpt lat="44.10335266363131" lon="9.922267292321028"><ele>174.0</ele><time>2026-03-23T15:11:21.999Z</time></trkpt><trkpt lat="44.10337676022808" lon="9.922428046029058"><ele>171.0</ele><time>2026-03-23T15:11:23.999Z</time></trkpt><trkpt lat="44.103329649641225" lon="9.922581654050505"><ele>168.0</ele><time>2026-03-23T15:11:25.999Z</time></trkpt><trkpt lat="44.10326536558365" lon="9.922708720085483"><ele>165.0</ele><time>2026-03-23T15:11:27.999Z</time></trkpt><trkpt lat="44.10319549862662" lon="9.922844725692167"><ele>162.0</ele><time>2026-03-23T15:11:29.999Z</time></trkpt><trkpt lat="44.10312977830536" lon="9.922991931844477"><ele>161.5</ele><time>2026-03-23T15:11:31.999Z</time></trkpt><trkpt lat="44.103112688674294" lon="9.923089396627542"><ele>161.0</ele><time>2026-03-23T15:11:32.999Z</time></trkpt><trkpt lat="44.10307579563975" lon="9.923178508147501"><ele>160.5</ele><time>2026-03-23T15:11:33.999Z</time></trkpt><trkpt lat="44.103042406236746" lon="9.92326891633667"><ele>160.0</ele><time>2026-03-23T15:11:34.999Z</time></trkpt><trkpt lat="44.102991488485166" lon="9.923332024660288"><ele>159.5</ele><time>2026-03-23T15:11:35.999Z</time></trkpt><trkpt lat="44.10296024814699" lon="9.923408674399514"><ele>159.0</ele><time>2026-03-23T15:11:36.999Z</time></trkpt><trkpt lat="44.10287356136399" lon="9.923530808453938"><ele>155.83333333333334</ele><time>2026-03-23T15:11:38.999Z</time></trkpt><trkpt lat="44.102927364906144" lon="9.923654901242221"><ele>152.66666666666666</ele><time>2026-03-23T15:11:39.999Z</time></trkpt><trkpt lat="44.10299623286005" lon="9.923703886708623"><ele>149.5</ele><time>2026-03-23T15:11:40.999Z</time></trkpt><trkpt lat="44.103042657904815" lon="9.92377454144574"><ele>146.33333333333331</ele><time>2026-03-23T15:11:41.999Z</time></trkpt><trkpt lat="44.103093512277205" lon="9.923840353009254"><ele>143.16666666666666</ele><time>2026-03-23T15:11:42.999Z</time></trkpt><trkpt lat="44.10314968223437" lon="9.923913043302342"><ele>140.0</ele><time>2026-03-23T15:11:43.999Z</time></trkpt><trkpt lat="44.10321757335507" lon="9.923965380270715"><ele>141.16666666666666</ele><time>2026-03-23T15:11:44.999Z</time></trkpt><trkpt lat="44.10331185162843" lon="9.923956173493922"><ele>142.33333333333331</ele><time>2026-03-23T15:11:45.999Z</time></trkpt><trkpt lat="44.103383633698805" lon="9.923875965670137"><ele>143.5</ele><time>2026-03-23T15:11:46.999Z</time></trkpt><trkpt lat="44.10339075101022" lon="9.923746121865133"><ele>144.66666666666666</ele><time>2026-03-23T15:11:47.999Z</time></trkpt><trkpt lat="44.10336929016304" lon="9.9236410476973"><ele>145.83333333333334</ele><time>2026-03-23T15:11:48.999Z</time></trkpt><trkpt lat="44.103352427127746" lon="9.923553518166518"><ele>147.0</ele><time>2026-03-23T15:11:49.999Z</time></trkpt><trkpt lat="44.10333493317385" lon="9.923344622830118"><ele>150.0</ele><time>2026-03-23T15:11:51.999Z</time></trkpt><trkpt lat="44.10336091929115" lon="9.923226141482345"><ele>153.0</ele><time>2026-03-23T15:11:52.999Z</time></trkpt><trkpt lat="44.10341390900539" lon="9.923117350108239"><ele>156.0</ele><time>2026-03-23T15:11:53.999Z</time></trkpt><trkpt lat="44.103472721908105" lon="9.923021166780014"><ele>159.0</ele><time>2026-03-23T15:11:54.999Z</time></trkpt><trkpt lat="44.10353158740114" lon="9.922921956068844"><ele>162.0</ele><time>2026-03-23T15:11:55.999Z</time></trkpt><trkpt lat="44.10360178481239" lon="9.922834151771674"><ele>162.0</ele><time>2026-03-23T15:11:56.999Z</time></trkpt><trkpt lat="44.103655588823386" lon="9.9227468562945"><ele>162.0</ele><time>2026-03-23T15:11:57.999Z</time></trkpt><trkpt lat="44.10370249837673" lon="9.922681593983086"><ele>162.0</ele><time>2026-03-23T15:11:58.999Z</time></trkpt><trkpt lat="44.103789210007996" lon="9.922682206464852"><ele>162.0</ele><time>2026-03-23T15:12:00.999Z</time></trkpt><trkpt lat="44.103761922109236" lon="9.922837364615024"><ele>162.0</ele><time>2026-03-23T15:12:02.999Z</time></trkpt><trkpt lat="44.10366794014678" lon="9.922948225281942"><ele>162.0</ele><time>2026-03-23T15:12:04.999Z</time></trkpt><trkpt lat="44.1036255436196" lon="9.923026858137879"><ele>162.0</ele><time>2026-03-23T15:12:05.999Z</time></trkpt><trkpt lat="44.103582934894035" lon="9.923113143276682"><ele>162.0</ele><time>2026-03-23T15:12:06.999Z</time></trkpt><trkpt lat="44.103542613909724" lon="9.923200734177477"><ele>162.0</ele><time>2026-03-23T15:12:07.999Z</time></trkpt><trkpt lat="44.10351319566079" lon="9.923291737228471"><ele>162.0</ele><time>2026-03-23T15:12:08.999Z</time></trkpt><trkpt lat="44.10350158649892" lon="9.923395965309352"><ele>162.0</ele><time>2026-03-23T15:12:09.999Z</time></trkpt><trkpt lat="44.10351273464632" lon="9.923512197579875"><ele>159.5</ele><time>2026-03-23T15:12:10.999Z</time></trkpt><trkpt lat="44.10354528229683" lon="9.923623087278735"><ele>157.0</ele><time>2026-03-23T15:12:11.999Z</time></trkpt><trkpt lat="44.103593091003304" lon="9.923714435501969"><ele>154.5</ele><time>2026-03-23T15:12:12.999Z</time></trkpt><trkpt lat="44.10362746249894" lon="9.923826269458345"><ele>152.0</ele><time>2026-03-23T15:12:13.999Z</time></trkpt><trkpt lat="44.10367323840423" lon="9.92391709875415"><ele>149.5</ele><time>2026-03-23T15:12:14.999Z</time></trkpt><trkpt lat="44.10369593004703" lon="9.924032194666518"><ele>147.0</ele><time>2026-03-23T15:12:15.999Z</time></trkpt><trkpt lat="44.103696823498254" lon="9.924156235989093"><ele>142.0</ele><time>2026-03-23T15:12:16.999Z</time></trkpt><trkpt lat="44.1037207969183" lon="9.924273545232897"><ele>137.0</ele><time>2026-03-23T15:12:17.999Z</time></trkpt><trkpt lat="44.10370605463556" lon="9.924386641915259"><ele>132.0</ele><time>2026-03-23T15:12:18.999Z</time></trkpt><trkpt lat="44.103713223241286" lon="9.924493922415056"><ele>127.0</ele><time>2026-03-23T15:12:19.999Z</time></trkpt><trkpt lat="44.103661728609644" lon="9.924582421943484"><ele>122.0</ele><time>2026-03-23T15:12:20.999Z</time></trkpt><trkpt lat="44.103591213886666" lon="9.924638359148284"><ele>117.0</ele><time>2026-03-23T15:12:21.999Z</time></trkpt><trkpt lat="44.103499359713126" lon="9.924659076739719"><ele>117.0</ele><time>2026-03-23T15:12:22.999Z</time></trkpt><trkpt lat="44.1034117556427" lon="9.92466467597763"><ele>117.0</ele><time>2026-03-23T15:12:23.999Z</time></trkpt><trkpt lat="44.10332757002304" lon="9.924658742639876"><ele>117.0</ele><time>2026-03-23T15:12:24.999Z</time></trkpt><trkpt lat="44.10324203897298" lon="9.924646706280994"><ele>117.0</ele><time>2026-03-23T15:12:25.999Z</time></trkpt><trkpt lat="44.10315255831539" lon="9.924609591173114"><ele>117.0</ele><time>2026-03-23T15:12:26.999Z</time></trkpt><trkpt lat="44.103069606145034" lon="9.924541284636911"><ele>117.0</ele><time>2026-03-23T15:12:27.999Z</time></trkpt><trkpt lat="44.10299971609706" lon="9.924452976500037"><ele>114.6</ele><time>2026-03-23T15:12:28.999Z</time></trkpt><trkpt lat="44.102928071438306" lon="9.924372818327406"><ele>112.19999999999999</ele><time>2026-03-23T15:12:29.999Z</time></trkpt><trkpt lat="44.102840842185394" lon="9.924328068322303"><ele>109.8</ele><time>2026-03-23T15:12:30.999Z</time></trkpt><trkpt lat="44.10275133194889" lon="9.924310908523408"><ele>107.4</ele><time>2026-03-23T15:12:31.999Z</time></trkpt><trkpt lat="44.102659975512246" lon="9.92431314642877"><ele>105.0</ele><time>2026-03-23T15:12:32.999Z</time></trkpt><trkpt lat="44.102573128250626" lon="9.924325871998711"><ele>105.0</ele><time>2026-03-23T15:12:33.999Z</time></trkpt><trkpt lat="44.10248493051229" lon="9.92435510101471"><ele>105.0</ele><time>2026-03-23T15:12:34.999Z</time></trkpt><trkpt lat="44.10239942243033" lon="9.924391199085813"><ele>105.0</ele><time>2026-03-23T15:12:35.999Z</time></trkpt><trkpt lat="44.10230737210244" lon="9.924427498657252"><ele>105.0</ele><time>2026-03-23T15:12:36.999Z</time></trkpt><trkpt lat="44.10222048831308" lon="9.924474807506508"><ele>105.0</ele><time>2026-03-23T15:12:37.999Z</time></trkpt><trkpt lat="44.10211286189295" lon="9.924497345291375"><ele>105.2</ele><time>2026-03-23T15:12:38.999Z</time></trkpt><trkpt lat="44.10200201961638" lon="9.924543243194936"><ele>105.4</ele><time>2026-03-23T15:12:39.999Z</time></trkpt><trkpt lat="44.10190445000875" lon="9.924523455391665"><ele>105.6</ele><time>2026-03-23T15:12:40.999Z</time></trkpt><trkpt lat="44.10184142392013" lon="9.924516402571065"><ele>105.8</ele><time>2026-03-23T15:12:41.999Z</time></trkpt><trkpt lat="44.10174523658435" lon="9.924448286104242"><ele>106.0</ele><time>2026-03-23T15:12:42.999Z</time></trkpt><trkpt lat="44.10166401853708" lon="9.924365680571444"><ele>106.00000000000001</ele><time>2026-03-23T15:12:43.999Z</time></trkpt><trkpt lat="44.101600117537515" lon="9.924292511789004"><ele>106.0</ele><time>2026-03-23T15:12:44.999Z</time></trkpt><trkpt lat="44.10155395711689" lon="9.9242178069269"><ele>106.0</ele><time>2026-03-23T15:12:45.999Z</time></trkpt><trkpt lat="44.10150904306858" lon="9.924144839762453"><ele>106.0</ele><time>2026-03-23T15:12:46.999Z</time></trkpt><trkpt lat="44.101557659262895" lon="9.923999980152606"><ele>106.00000000000001</ele><time>2026-03-23T15:12:47.999Z</time></trkpt><trkpt lat="44.10156545087805" lon="9.92388075777296"><ele>106.0</ele><time>2026-03-23T15:12:48.999Z</time></trkpt><trkpt lat="44.10160659679811" lon="9.923775985490892"><ele>107.83333333333334</ele><time>2026-03-23T15:12:49.999Z</time></trkpt><trkpt lat="44.101651639362736" lon="9.923670865736941"><ele>109.66666666666667</ele><time>2026-03-23T15:12:50.999Z</time></trkpt><trkpt lat="44.10168015790141" lon="9.923561041243461"><ele>111.5</ele><time>2026-03-23T15:12:51.999Z</time></trkpt><trkpt lat="44.10170204635105" lon="9.92346087189451"><ele>113.33333333333334</ele><time>2026-03-23T15:12:52.999Z</time></trkpt><trkpt lat="44.10170050368091" lon="9.923371982376228"><ele>115.16666666666667</ele><time>2026-03-23T15:12:53.999Z</time></trkpt><trkpt lat="44.10160437327562" lon="9.923332093102891"><ele>117.0</ele><time>2026-03-23T15:12:54.999Z</time></trkpt><trkpt lat="44.10149095827489" lon="9.92351991000695"><ele>111.5</ele><time>2026-03-23T15:12:56.999Z</time></trkpt><trkpt lat="44.10146773384916" lon="9.923637569714604"><ele>106.0</ele><time>2026-03-23T15:12:57.999Z</time></trkpt><trkpt lat="44.10146737190172" lon="9.923755451741862"><ele>100.5</ele><time>2026-03-23T15:12:58.999Z</time></trkpt><trkpt lat="44.10144208911161" lon="9.923866388698633"><ele>95.0</ele><time>2026-03-23T15:12:59.999Z</time></trkpt><trkpt lat="44.10139447733119" lon="9.923965699553234"><ele>89.5</ele><time>2026-03-23T15:13:00.999Z</time></trkpt><trkpt lat="44.10133561004245" lon="9.924040747148196"><ele>84.0</ele><time>2026-03-23T15:13:01.999Z</time></trkpt><trkpt lat="44.10126519364266" lon="9.924103143907562"><ele>84.0</ele><time>2026-03-23T15:13:02.999Z</time></trkpt><trkpt lat="44.10120011158519" lon="9.924172095765101"><ele>84.0</ele><time>2026-03-23T15:13:03.999Z</time></trkpt><trkpt lat="44.1011496448612" lon="9.924263936568458"><ele>84.0</ele><time>2026-03-23T15:13:04.999Z</time></trkpt><trkpt lat="44.10111152062847" lon="9.924367730670086"><ele>84.0</ele><time>2026-03-23T15:13:05.999Z</time></trkpt><trkpt lat="44.10108357769778" lon="9.924478732241822"><ele>84.0</ele><time>2026-03-23T15:13:06.999Z</time></trkpt><trkpt lat="44.101067789988505" lon="9.924592201797951"><ele>84.0</ele><time>2026-03-23T15:13:07.999Z</time></trkpt><trkpt lat="44.101045552782" lon="9.924708207855844"><ele>85.16666666666667</ele><time>2026-03-23T15:13:08.999Z</time></trkpt><trkpt lat="44.10102813118225" lon="9.92482715689429"><ele>86.33333333333333</ele><time>2026-03-23T15:13:09.999Z</time></trkpt><trkpt lat="44.10103050022218" lon="9.924944492991026"><ele>87.5</ele><time>2026-03-23T15:13:10.999Z</time></trkpt><trkpt lat="44.10108894022738" lon="9.925042754580947"><ele>88.66666666666666</ele><time>2026-03-23T15:13:11.999Z</time></trkpt><trkpt lat="44.10115023777664" lon="9.925123239342893"><ele>89.83333333333333</ele><time>2026-03-23T15:13:12.999Z</time></trkpt><trkpt lat="44.101220325399105" lon="9.925174715708605"><ele>91.0</ele><time>2026-03-23T15:13:13.999Z</time></trkpt><trkpt lat="44.10131376571776" lon="9.925158570407422"><ele>91.0</ele><time>2026-03-23T15:13:14.999Z</time></trkpt><trkpt lat="44.101404443248136" lon="9.925109530212618"><ele>91.0</ele><time>2026-03-23T15:13:15.999Z</time></trkpt><trkpt lat="44.10150021254776" lon="9.925082017016134"><ele>91.0</ele><time>2026-03-23T15:13:16.999Z</time></trkpt><trkpt lat="44.10160179827044" lon="9.925080044482629"><ele>91.0</ele><time>2026-03-23T15:13:17.999Z</time></trkpt><trkpt lat="44.10169870774665" lon="9.925120532018633"><ele>91.0</ele><time>2026-03-23T15:13:18.999Z</time></trkpt><trkpt lat="44.10179147286892" lon="9.92511526669088"><ele>89.19999999999999</ele><time>2026-03-23T15:13:19.999Z</time></trkpt><trkpt lat="44.10188535696951" lon="9.925122677296153"><ele>87.39999999999999</ele><time>2026-03-23T15:13:20.999Z</time></trkpt><trkpt lat="44.101970710384684" lon="9.92515144559958"><ele>85.6</ele><time>2026-03-23T15:13:21.999Z</time></trkpt><trkpt lat="44.10206423046095" lon="9.925158158662036"><ele>83.8</ele><time>2026-03-23T15:13:22.999Z</time></trkpt><trkpt lat="44.10215383359481" lon="9.92516459057"><ele>82.0</ele><time>2026-03-23T15:13:23.999Z</time></trkpt><trkpt lat="44.10224080867433" lon="9.92515061129013"><ele>82.0</ele><time>2026-03-23T15:13:24.999Z</time></trkpt><trkpt lat="44.10233274767289" lon="9.925165263713904"><ele>82.0</ele><time>2026-03-23T15:13:25.999Z</time></trkpt><trkpt lat="44.10242649885528" lon="9.925160868881056"><ele>82.0</ele><time>2026-03-23T15:13:26.999Z</time></trkpt><trkpt lat="44.102509307883864" lon="9.925129287215247"><ele>82.0</ele><time>2026-03-23T15:13:27.999Z</time></trkpt><trkpt lat="44.10259720185574" lon="9.925081635368395"><ele>82.0</ele><time>2026-03-23T15:13:28.999Z</time></trkpt><trkpt lat="44.102687894334025" lon="9.92507676117187"><ele>80.39999999999999</ele><time>2026-03-23T15:13:29.999Z</time></trkpt><trkpt lat="44.10277042158873" lon="9.925135824282783"><ele>78.8</ele><time>2026-03-23T15:13:30.999Z</time></trkpt><trkpt lat="44.10281360406252" lon="9.925257578362732"><ele>77.2</ele><time>2026-03-23T15:13:31.999Z</time></trkpt><trkpt lat="44.102878200106424" lon="9.925359768451534"><ele>75.6</ele><time>2026-03-23T15:13:33Z</time></trkpt><trkpt lat="44.102942573465874" lon="9.925442909091602"><ele>74.0</ele><time>2026-03-23T15:13:34Z</time></trkpt><trkpt lat="44.10301865469451" lon="9.92550412174433"><ele>74.0</ele><time>2026-03-23T15:13:35Z</time></trkpt><trkpt lat="44.103107741961004" lon="9.92557477405753"><ele>74.0</ele><time>2026-03-23T15:13:36Z</time></trkpt><trkpt lat="44.10319242683813" lon="9.925629830490907"><ele>74.0</ele><time>2026-03-23T15:13:37Z</time></trkpt><trkpt lat="44.10328379478554" lon="9.925674949782113"><ele>74.0</ele><time>2026-03-23T15:13:38Z</time></trkpt><trkpt lat="44.10338546065314" lon="9.925717902333274"><ele>74.0</ele><time>2026-03-23T15:13:39Z</time></trkpt><trkpt lat="44.103504069266904" lon="9.925787577225513"><ele>75.80000000000001</ele><time>2026-03-23T15:13:40Z</time></trkpt><trkpt lat="44.103592138988496" lon="9.925832624420543"><ele>77.60000000000001</ele><time>2026-03-23T15:13:41Z</time></trkpt><trkpt lat="44.103674708843684" lon="9.9258856211297"><ele>79.4</ele><time>2026-03-23T15:13:42Z</time></trkpt><trkpt lat="44.10376835462161" lon="9.925908295181651"><ele>81.2</ele><time>2026-03-23T15:13:43Z</time></trkpt><trkpt lat="44.103858386378285" lon="9.925926128844669"><ele>83.0</ele><time>2026-03-23T15:13:44Z</time></trkpt><trkpt lat="44.1039681905655" lon="9.925984293888984"><ele>83.16666666666667</ele><time>2026-03-23T15:13:45Z</time></trkpt><trkpt lat="44.10407722285742" lon="9.926040234574742"><ele>83.33333333333334</ele><time>2026-03-23T15:13:46Z</time></trkpt><trkpt lat="44.10415416018247" lon="9.926089275075366"><ele>83.5</ele><time>2026-03-23T15:13:47Z</time></trkpt><trkpt lat="44.10421832125902" lon="9.926150679812938"><ele>83.66666666666667</ele><time>2026-03-23T15:13:48Z</time></trkpt><trkpt lat="44.104253716061386" lon="9.926246895470245"><ele>83.83333333333333</ele><time>2026-03-23T15:13:49Z</time></trkpt><trkpt lat="44.10425702460529" lon="9.926340986984165"><ele>84.0</ele><time>2026-03-23T15:13:50Z</time></trkpt><trkpt lat="44.104220669266695" lon="9.926460477079877"><ele>84.0</ele><time>2026-03-23T15:13:51Z</time></trkpt><trkpt lat="44.10420761816531" lon="9.92658589615796"><ele>84.0</ele><time>2026-03-23T15:13:52Z</time></trkpt><trkpt lat="44.104199172841" lon="9.926705646474506"><ele>84.0</ele><time>2026-03-23T15:13:53Z</time></trkpt><trkpt lat="44.10414217892321" lon="9.9268154161998"><ele>84.0</ele><time>2026-03-23T15:13:54Z</time></trkpt><trkpt lat="44.10407672706368" lon="9.926914887895785"><ele>84.0</ele><time>2026-03-23T15:13:55Z</time></trkpt><trkpt lat="44.104013226591306" lon="9.927018819890463"><ele>79.0</ele><time>2026-03-23T15:13:56Z</time></trkpt><trkpt lat="44.103955219790954" lon="9.9271198956321"><ele>74.0</ele><time>2026-03-23T15:13:57Z</time></trkpt><trkpt lat="44.10390600824495" lon="9.927224545204357"><ele>69.0</ele><time>2026-03-23T15:13:58Z</time></trkpt><trkpt lat="44.10384917162764" lon="9.927322484922694"><ele>64.0</ele><time>2026-03-23T15:13:59Z</time></trkpt><trkpt lat="44.10379486046844" lon="9.92741694149736"><ele>59.0</ele><time>2026-03-23T15:14:00Z</time></trkpt><trkpt lat="44.1037407119005" lon="9.927515975656881"><ele>54.0</ele><time>2026-03-23T15:14:01Z</time></trkpt><trkpt lat="44.10368555384377" lon="9.92761683404354"><ele>53.400000000000006</ele><time>2026-03-23T15:14:02Z</time></trkpt><trkpt lat="44.103633526173304" lon="9.927719276710995"><ele>52.800000000000004</ele><time>2026-03-23T15:14:03Z</time></trkpt><trkpt lat="44.1035909138231" lon="9.927835271927952"><ele>52.2</ele><time>2026-03-23T15:14:04Z</time></trkpt><trkpt lat="44.10358574155427" lon="9.927962114504673"><ele>51.599999999999994</ele><time>2026-03-23T15:14:05Z</time></trkpt><trkpt lat="44.10359845400729" lon="9.928092963847229"><ele>51.0</ele><time>2026-03-23T15:14:06Z</time></trkpt><trkpt lat="44.103644030891125" lon="9.92821563070838"><ele>51.0</ele><time>2026-03-23T15:14:06.999Z</time></trkpt><trkpt lat="44.10371083219024" lon="9.928315530588815"><ele>51.0</ele><time>2026-03-23T15:14:07.999Z</time></trkpt><trkpt lat="44.103797151469415" lon="9.928397335664803"><ele>51.0</ele><time>2026-03-23T15:14:08.999Z</time></trkpt><trkpt lat="44.10387554259613" lon="9.92847241172579"><ele>51.0</ele><time>2026-03-23T15:14:09.999Z</time></trkpt><trkpt lat="44.10395037396461" lon="9.928553539380465"><ele>51.0</ele><time>2026-03-23T15:14:10.999Z</time></trkpt><trkpt lat="44.104018110748655" lon="9.928639956789999"><ele>54.199999999999996</ele><time>2026-03-23T15:14:11.999Z</time></trkpt><trkpt lat="44.10408951214691" lon="9.928723964952898"><ele>57.4</ele><time>2026-03-23T15:14:12.999Z</time></trkpt><trkpt lat="44.104158553943556" lon="9.928800211794849"><ele>60.6</ele><time>2026-03-23T15:14:13.999Z</time></trkpt><trkpt lat="44.10423234621734" lon="9.928874307164035"><ele>63.8</ele><time>2026-03-23T15:14:14.999Z</time></trkpt><trkpt lat="44.10430955928766" lon="9.92894377088267"><ele>67.0</ele><time>2026-03-23T15:14:15.999Z</time></trkpt><trkpt lat="44.10439552582106" lon="9.928999692336278"><ele>67.0</ele><time>2026-03-23T15:14:16.999Z</time></trkpt><trkpt lat="44.10448416787688" lon="9.929054521886908"><ele>67.0</ele><time>2026-03-23T15:14:17.999Z</time></trkpt><trkpt lat="44.10457849661028" lon="9.929066095276237"><ele>67.0</ele><time>2026-03-23T15:14:18.999Z</time></trkpt><trkpt lat="44.104657588505326" lon="9.929069332093823"><ele>67.0</ele><time>2026-03-23T15:14:19.999Z</time></trkpt><trkpt lat="44.104740156089605" lon="9.929212053611375"><ele>67.0</ele><time>2026-03-23T15:14:21.999Z</time></trkpt><trkpt lat="44.10470857103737" lon="9.929325940831701"><ele>67.33333333333333</ele><time>2026-03-23T15:14:22.999Z</time></trkpt><trkpt lat="44.10463885543747" lon="9.929397924450287"><ele>67.66666666666666</ele><time>2026-03-23T15:14:23.999Z</time></trkpt><trkpt lat="44.104597313082024" lon="9.929474406467946"><ele>68.0</ele><time>2026-03-23T15:14:24.999Z</time></trkpt><trkpt lat="44.104562692578156" lon="9.92956275285876"><ele>68.33333333333333</ele><time>2026-03-23T15:14:25.999Z</time></trkpt><trkpt lat="44.10452008416316" lon="9.92965643888517"><ele>68.66666666666667</ele><time>2026-03-23T15:14:26.999Z</time></trkpt><trkpt lat="44.104454595809436" lon="9.929734940140932"><ele>69.0</ele><time>2026-03-23T15:14:27.999Z</time></trkpt><trkpt lat="44.10437999345887" lon="9.929806003871297"><ele>69.0</ele><time>2026-03-23T15:14:28.999Z</time></trkpt><trkpt lat="44.10430465019865" lon="9.929873972410219"><ele>69.0</ele><time>2026-03-23T15:14:29.999Z</time></trkpt><trkpt lat="44.104223828093886" lon="9.92993994251851"><ele>69.0</ele><time>2026-03-23T15:14:30.999Z</time></trkpt><trkpt lat="44.10413214840042" lon="9.929961227044672"><ele>69.0</ele><time>2026-03-23T15:14:31.999Z</time></trkpt><trkpt lat="44.104044061379" lon="9.929930254759348"><ele>69.0</ele><time>2026-03-23T15:14:32.999Z</time></trkpt><trkpt lat="44.103968472425535" lon="9.929861064022377"><ele>66.33333333333333</ele><time>2026-03-23T15:14:33.999Z</time></trkpt><trkpt lat="44.10388690140194" lon="9.929810625990953"><ele>63.66666666666667</ele><time>2026-03-23T15:14:34.999Z</time></trkpt><trkpt lat="44.10379467318122" lon="9.929796243440245"><ele>61.0</ele><time>2026-03-23T15:14:35.999Z</time></trkpt><trkpt lat="44.10370897399539" lon="9.929777191510535"><ele>58.333333333333336</ele><time>2026-03-23T15:14:36.999Z</time></trkpt><trkpt lat="44.10362494993655" lon="9.929775701749291"><ele>55.66666666666667</ele><time>2026-03-23T15:14:37.999Z</time></trkpt><trkpt lat="44.103546181456075" lon="9.929804477878502"><ele>53.0</ele><time>2026-03-23T15:14:38.999Z</time></trkpt><trkpt lat="44.103474679965174" lon="9.929860136005308"><ele>53.00000000000001</ele><time>2026-03-23T15:14:39.999Z</time></trkpt><trkpt lat="44.10341097216221" lon="9.929926910581331"><ele>53.0</ele><time>2026-03-23T15:14:40.999Z</time></trkpt><trkpt lat="44.1033477703252" lon="9.92999993056964"><ele>53.0</ele><time>2026-03-23T15:14:41.999Z</time></trkpt><trkpt lat="44.10328586286528" lon="9.930078233349892"><ele>53.0</ele><time>2026-03-23T15:14:42.999Z</time></trkpt><trkpt lat="44.103218224524205" lon="9.930161809021824"><ele>53.00000000000001</ele><time>2026-03-23T15:14:43.999Z</time></trkpt><trkpt lat="44.10315371119667" lon="9.930256792447057"><ele>53.0</ele><time>2026-03-23T15:14:44.999Z</time></trkpt><trkpt lat="44.10308976673443" lon="9.930348120232505"><ele>51.0</ele><time>2026-03-23T15:14:45.999Z</time></trkpt><trkpt lat="44.103018916416254" lon="9.930422054583657"><ele>49.0</ele><time>2026-03-23T15:14:46.999Z</time></trkpt><trkpt lat="44.1029318232915" lon="9.930475053957343"><ele>47.0</ele><time>2026-03-23T15:14:47.999Z</time></trkpt><trkpt lat="44.10283858910223" lon="9.930495631696077"><ele>45.0</ele><time>2026-03-23T15:14:48.999Z</time></trkpt><trkpt lat="44.102749383267074" lon="9.930517872375752"><ele>43.0</ele><time>2026-03-23T15:14:49.999Z</time></trkpt><trkpt lat="44.102665457906205" lon="9.930557513104807"><ele>43.0</ele><time>2026-03-23T15:14:50.999Z</time></trkpt><trkpt lat="44.10258752733711" lon="9.930618742376312"><ele>43.0</ele><time>2026-03-23T15:14:51.999Z</time></trkpt><trkpt lat="44.1025226035129" lon="9.930709701623893"><ele>43.0</ele><time>2026-03-23T15:14:52.999Z</time></trkpt><trkpt lat="44.102495797476124" lon="9.930829028273342"><ele>43.0</ele><time>2026-03-23T15:14:53.999Z</time></trkpt><trkpt lat="44.102508937875875" lon="9.930958947854338"><ele>43.0</ele><time>2026-03-23T15:14:54.999Z</time></trkpt><trkpt lat="44.102586123384214" lon="9.931041357253479"><ele>43.0</ele><time>2026-03-23T15:14:55.999Z</time></trkpt><trkpt lat="44.102680970449" lon="9.931043966159157"><ele>43.0</ele><time>2026-03-23T15:14:56.999Z</time></trkpt><trkpt lat="44.1027567514448" lon="9.930990602820017"><ele>43.0</ele><time>2026-03-23T15:14:57.999Z</time></trkpt><trkpt lat="44.10281288500263" lon="9.930918307986836"><ele>43.0</ele><time>2026-03-23T15:14:58.999Z</time></trkpt><trkpt lat="44.10287074092161" lon="9.930867680028483"><ele>43.0</ele><time>2026-03-23T15:14:59.999Z</time></trkpt><trkpt lat="44.102933299142926" lon="9.930839694323677"><ele>43.0</ele><time>2026-03-23T15:15:00.999Z</time></trkpt><trkpt lat="44.103015286792335" lon="9.930822303283703"><ele>43.0</ele><time>2026-03-23T15:15:01.999Z</time></trkpt><trkpt lat="44.10309805922446" lon="9.930838156582123"><ele>43.0</ele><time>2026-03-23T15:15:02.999Z</time></trkpt><trkpt lat="44.10317068654358" lon="9.930884812974883"><ele>43.0</ele><time>2026-03-23T15:15:03.999Z</time></trkpt><trkpt lat="44.10321918986985" lon="9.93097048790469"><ele>43.0</ele><time>2026-03-23T15:15:04.999Z</time></trkpt><trkpt lat="44.103247190302376" lon="9.93108009775324"><ele>43.0</ele><time>2026-03-23T15:15:05.999Z</time></trkpt><trkpt lat="44.1032522934657" lon="9.93119331423192"><ele>43.0</ele><time>2026-03-23T15:15:06.999Z</time></trkpt><trkpt lat="44.10322771260467" lon="9.931302954557896"><ele>41.199999999999996</ele><time>2026-03-23T15:15:07.999Z</time></trkpt><trkpt lat="44.10319191318488" lon="9.931412649405898"><ele>39.4</ele><time>2026-03-23T15:15:08.999Z</time></trkpt><trkpt lat="44.10315822867935" lon="9.931530481655663"><ele>37.599999999999994</ele><time>2026-03-23T15:15:09.999Z</time></trkpt><trkpt lat="44.10312604056952" lon="9.931656558952996"><ele>35.8</ele><time>2026-03-23T15:15:10.999Z</time></trkpt><trkpt lat="44.103106450539755" lon="9.93179131805235"><ele>34.0</ele><time>2026-03-23T15:15:11.999Z</time></trkpt><trkpt lat="44.10308222684761" lon="9.931916701618382"><ele>33.8</ele><time>2026-03-23T15:15:12.999Z</time></trkpt><trkpt lat="44.10304965641322" lon="9.932041628705646"><ele>33.599999999999994</ele><time>2026-03-23T15:15:13.999Z</time></trkpt><trkpt lat="44.103003461199684" lon="9.93215989343774"><ele>33.4</ele><time>2026-03-23T15:15:14.999Z</time></trkpt><trkpt lat="44.10293113501005" lon="9.932251886206148"><ele>33.199999999999996</ele><time>2026-03-23T15:15:15.999Z</time></trkpt><trkpt lat="44.10285677478903" lon="9.932336779304228"><ele>33.0</ele><time>2026-03-23T15:15:16.999Z</time></trkpt><trkpt lat="44.10280082817521" lon="9.932442375471823"><ele>32.8</ele><time>2026-03-23T15:15:17.999Z</time></trkpt><trkpt lat="44.102768258111546" lon="9.932566448145533"><ele>32.599999999999994</ele><time>2026-03-23T15:15:18.999Z</time></trkpt><trkpt lat="44.10274172390804" lon="9.932709611551656"><ele>32.400000000000006</ele><time>2026-03-23T15:15:19.999Z</time></trkpt><trkpt lat="44.10270855507401" lon="9.93283324326963"><ele>32.2</ele><time>2026-03-23T15:15:21Z</time></trkpt><trkpt lat="44.10262348474882" lon="9.93290594722153"><ele>32.0</ele><time>2026-03-23T15:15:22Z</time></trkpt><trkpt lat="44.102551660133365" lon="9.933002589660827"><ele>31.999999999999996</ele><time>2026-03-23T15:15:23Z</time></trkpt><trkpt lat="44.10248667827737" lon="9.933107886872046"><ele>32.0</ele><time>2026-03-23T15:15:24Z</time></trkpt><trkpt lat="44.10241592824789" lon="9.933192169030075"><ele>32.0</ele><time>2026-03-23T15:15:25Z</time></trkpt><trkpt lat="44.10235309863589" lon="9.933285826935565"><ele>32.0</ele><time>2026-03-23T15:15:26Z</time></trkpt><trkpt lat="44.10229717953783" lon="9.933369283381925"><ele>31.999999999999996</ele><time>2026-03-23T15:15:27Z</time></trkpt><trkpt lat="44.10224796767811" lon="9.933432234578271"><ele>32.0</ele><time>2026-03-23T15:15:28Z</time></trkpt><trkpt lat="44.10218565851335" lon="9.933451695834435"><ele>30.499999999999996</ele><time>2026-03-23T15:15:29Z</time></trkpt><trkpt lat="44.10212348512016" lon="9.933408020070843"><ele>29.0</ele><time>2026-03-23T15:15:30Z</time></trkpt><trkpt lat="44.10210200473861" lon="9.933297503067452"><ele>27.5</ele><time>2026-03-23T15:15:31Z</time></trkpt><trkpt lat="44.10209248917574" lon="9.933194775348996"><ele>26.0</ele><time>2026-03-23T15:15:32Z</time></trkpt><trkpt lat="44.10210930628938" lon="9.933101412385184"><ele>24.5</ele><time>2026-03-23T15:15:33Z</time></trkpt><trkpt lat="44.10213634175524" lon="9.932997478534872"><ele>23.0</ele><time>2026-03-23T15:15:34Z</time></trkpt><trkpt lat="44.102167354774124" lon="9.932889236157257"><ele>23.0</ele><time>2026-03-23T15:15:35Z</time></trkpt><trkpt lat="44.10219462772562" lon="9.932776868127402"><ele>23.0</ele><time>2026-03-23T15:15:36Z</time></trkpt><trkpt lat="44.102236066393985" lon="9.932674728494023"><ele>23.0</ele><time>2026-03-23T15:15:37Z</time></trkpt><trkpt lat="44.10229399468337" lon="9.932584929221473"><ele>23.0</ele><time>2026-03-23T15:15:38Z</time></trkpt><trkpt lat="44.102345436501956" lon="9.93248889383638"><ele>23.0</ele><time>2026-03-23T15:15:39Z</time></trkpt><trkpt lat="44.10240477603698" lon="9.932396486501043"><ele>23.0</ele><time>2026-03-23T15:15:40Z</time></trkpt><trkpt lat="44.10247332865531" lon="9.932314371723255"><ele>24.666666666666668</ele><time>2026-03-23T15:15:41Z</time></trkpt><trkpt lat="44.102538649642185" lon="9.932229173688686"><ele>26.333333333333336</ele><time>2026-03-23T15:15:42Z</time></trkpt><trkpt lat="44.10260599567889" lon="9.932154106208195"><ele>28.0</ele><time>2026-03-23T15:15:43Z</time></trkpt><trkpt lat="44.10266010971855" lon="9.932063769042724"><ele>29.666666666666668</ele><time>2026-03-23T15:15:44Z</time></trkpt><trkpt lat="44.10269145804742" lon="9.931953343818776"><ele>31.333333333333332</ele><time>2026-03-23T15:15:45Z</time></trkpt><trkpt lat="44.10266300202492" lon="9.931829070359575"><ele>33.0</ele><time>2026-03-23T15:15:46Z</time></trkpt><trkpt lat="44.10258587061965" lon="9.931750362340164"><ele>33.0</ele><time>2026-03-23T15:15:47Z</time></trkpt><trkpt lat="44.1024942926098" lon="9.93175762877908"><ele>33.0</ele><time>2026-03-23T15:15:48Z</time></trkpt><trkpt lat="44.102412605834786" lon="9.931800026306655"><ele>33.0</ele><time>2026-03-23T15:15:49Z</time></trkpt><trkpt lat="44.102335312725195" lon="9.93187916603463"><ele>33.0</ele><time>2026-03-23T15:15:50Z</time></trkpt><trkpt lat="44.102263831475625" lon="9.931938046027113"><ele>33.0</ele><time>2026-03-23T15:15:51Z</time></trkpt><trkpt lat="44.1021842922944" lon="9.931993058177937"><ele>33.0</ele><time>2026-03-23T15:15:52Z</time></trkpt><trkpt lat="44.10210164052717" lon="9.932062860588891"><ele>32.0</ele><time>2026-03-23T15:15:53Z</time></trkpt><trkpt lat="44.10201122120432" lon="9.932134714775792"><ele>30.999999999999996</ele><time>2026-03-23T15:15:54Z</time></trkpt><trkpt lat="44.10192111110987" lon="9.932203256719632"><ele>29.999999999999996</ele><time>2026-03-23T15:15:55Z</time></trkpt><trkpt lat="44.10183559918745" lon="9.93227244957757"><ele>29.0</ele><time>2026-03-23T15:15:56Z</time></trkpt><trkpt lat="44.101747308541164" lon="9.932348177955191"><ele>28.0</ele><time>2026-03-23T15:15:57Z</time></trkpt><trkpt lat="44.1016724933021" lon="9.932426296383017"><ele>28.0</ele><time>2026-03-23T15:15:58Z</time></trkpt><trkpt lat="44.10160369812303" lon="9.932524365393782"><ele>27.999999999999996</ele><time>2026-03-23T15:15:59Z</time></trkpt><trkpt lat="44.10153383092827" lon="9.932629809600986"><ele>27.999999999999996</ele><time>2026-03-23T15:16:00Z</time></trkpt><trkpt lat="44.101474061359305" lon="9.932734158516048"><ele>28.0</ele><time>2026-03-23T15:16:01Z</time></trkpt><trkpt lat="44.10140479065363" lon="9.932832523373605"><ele>28.0</ele><time>2026-03-23T15:16:02Z</time></trkpt><trkpt lat="44.10133544639524" lon="9.932925107867085"><ele>25.4</ele><time>2026-03-23T15:16:03Z</time></trkpt><trkpt lat="44.101259347327336" lon="9.933020713832287"><ele>22.799999999999997</ele><time>2026-03-23T15:16:04Z</time></trkpt><trkpt lat="44.10118313327071" lon="9.933110407096613"><ele>20.2</ele><time>2026-03-23T15:16:05Z</time></trkpt><trkpt lat="44.101107585694294" lon="9.93319292288912"><ele>17.6</ele><time>2026-03-23T15:16:06Z</time></trkpt><trkpt lat="44.10103503735512" lon="9.933271908183492"><ele>15.0</ele><time>2026-03-23T15:16:07Z</time></trkpt><trkpt lat="44.10098253561918" lon="9.933352729693599"><ele>14.0</ele><time>2026-03-23T15:16:08Z</time></trkpt><trkpt lat="44.100915838468275" lon="9.933443115068249"><ele>13.0</ele><time>2026-03-23T15:16:09Z</time></trkpt><trkpt lat="44.10092218111744" lon="9.933585701271413"><ele>12.0</ele><time>2026-03-23T15:16:10Z</time></trkpt><trkpt lat="44.10090955885917" lon="9.933713094039973"><ele>11.0</ele><time>2026-03-23T15:16:11Z</time></trkpt><trkpt lat="44.10091570418948" lon="9.933837920458036"><ele>10.0</ele><time>2026-03-23T15:16:12Z</time></trkpt><trkpt lat="44.10090607696435" lon="9.933947437161544"><ele>10.0</ele><time>2026-03-23T15:16:13Z</time></trkpt><trkpt lat="44.1008962437953" lon="9.93404525677403"><ele>10.0</ele><time>2026-03-23T15:16:14Z</time></trkpt><trkpt lat="44.10089739016877" lon="9.934148243023767"><ele>10.0</ele><time>2026-03-23T15:16:15Z</time></trkpt><trkpt lat="44.1009068003615" lon="9.934240813758343"><ele>10.0</ele><time>2026-03-23T15:16:16Z</time></trkpt><trkpt lat="44.100897990820634" lon="9.93438549766606"><ele>10.0</ele><time>2026-03-23T15:16:18Z</time></trkpt><trkpt lat="44.10076659203533" lon="9.93446718201854"><ele>9.833333333333334</ele><time>2026-03-23T15:16:23Z</time></trkpt><trkpt lat="44.10065996845489" lon="9.934497341580006"><ele>9.666666666666668</ele><time>2026-03-23T15:16:25Z</time></trkpt><trkpt lat="44.10059674576096" lon="9.93452227043879"><ele>9.5</ele><time>2026-03-23T15:16:26Z</time></trkpt><trkpt lat="44.100530374472136" lon="9.934553866553973"><ele>9.333333333333334</ele><time>2026-03-23T15:16:27Z</time></trkpt><trkpt lat="44.100466999643466" lon="9.934593739579062"><ele>9.166666666666666</ele><time>2026-03-23T15:16:28Z</time></trkpt><trkpt lat="44.1004033641233" lon="9.934642542823246"><ele>9.0</ele><time>2026-03-23T15:16:29Z</time></trkpt><trkpt lat="44.10034095525238" lon="9.934694506514571"><ele>9.000000000000002</ele><time>2026-03-23T15:16:30Z</time></trkpt><trkpt lat="44.100278665389816" lon="9.934755301505502"><ele>9.0</ele><time>2026-03-23T15:16:31Z</time></trkpt><trkpt lat="44.100220569957884" lon="9.934812653567079"><ele>9.0</ele><time>2026-03-23T15:16:32Z</time></trkpt><trkpt lat="44.10016299146141" lon="9.934870277404244"><ele>9.0</ele><time>2026-03-23T15:16:33Z</time></trkpt><trkpt lat="44.10010390419674" lon="9.934928859083914"><ele>9.0</ele><time>2026-03-23T15:16:34Z</time></trkpt><trkpt lat="44.10004864440715" lon="9.93498612764557"><ele>9.000000000000002</ele><time>2026-03-23T15:16:35Z</time></trkpt><trkpt lat="44.099984988569226" lon="9.935019012765583"><ele>9.0</ele><time>2026-03-23T15:16:36Z</time></trkpt><trkpt lat="44.09987297811495" lon="9.934992270537457"><ele>9.0</ele><time>2026-03-23T15:16:38Z</time></trkpt><trkpt lat="44.09977645674192" lon="9.935009104111959"><ele>9.0</ele><time>2026-03-23T15:16:40Z</time></trkpt><trkpt lat="44.09971008330746" lon="9.935076124394326"><ele>9.0</ele><time>2026-03-23T15:16:42Z</time></trkpt><trkpt lat="44.09964700152335" lon="9.935014065547685"><ele>9.0</ele><time>2026-03-23T15:16:45Z</time></trkpt><trkpt lat="44.09973687690828" lon="9.935039595201614"><ele>9.0</ele><time>2026-03-23T15:16:47Z</time></trkpt><trkpt lat="44.099669101026194" lon="9.934939681033102"><ele>9.0</ele><time>2026-03-23T15:17:41Z</time></trkpt><trkpt lat="44.09969878934063" lon="9.935026111007588"><ele>9.0</ele><time>2026-03-23T15:38:22.999Z</time></trkpt><trkpt lat="44.09965020996162" lon="9.935101709617257"><ele>9.0</ele><time>2026-03-23T15:38:26Z</time></trkpt><trkpt lat="44.09968635763463" lon="9.93502320822742"><ele>9.0</ele><time>2026-03-23T15:38:29Z</time></trkpt><trkpt lat="44.09975601295904" lon="9.934983873684693"><ele>9.0</ele><time>2026-03-23T15:38:46Z</time></trkpt><trkpt lat="44.09976083619937" lon="9.935123902894736"><ele>9.0</ele><time>2026-03-23T15:38:49Z</time></trkpt><trkpt lat="44.0997789779446" lon="9.935256828764565"><ele>9.0</ele><time>2026-03-23T15:38:51Z</time></trkpt><trkpt lat="44.09983861357365" lon="9.935298730471676"><ele>9.0</ele><time>2026-03-23T15:38:52Z</time></trkpt><trkpt lat="44.0999075996268" lon="9.935277319547684"><ele>9.0</ele><time>2026-03-23T15:38:53Z</time></trkpt><trkpt lat="44.0999741744667" lon="9.93515537465555"><ele>9.0</ele><time>2026-03-23T15:38:55Z</time></trkpt><trkpt lat="44.100031524302054" lon="9.93506068688872"><ele>9.0</ele><time>2026-03-23T15:38:56.999Z</time></trkpt><trkpt lat="44.10009114267949" lon="9.934964813740757"><ele>9.0</ele><time>2026-03-23T15:38:58.999Z</time></trkpt><trkpt lat="44.10017446934572" lon="9.934889826834377"><ele>9.0</ele><time>2026-03-23T15:39:00.999Z</time></trkpt><trkpt lat="44.10027686411936" lon="9.934828368053006"><ele>9.0</ele><time>2026-03-23T15:39:02.999Z</time></trkpt><trkpt lat="44.100329595593486" lon="9.934778625521103"><ele>9.0</ele><time>2026-03-23T15:39:03.999Z</time></trkpt><trkpt lat="44.10042715962609" lon="9.93469044370562"><ele>9.0</ele><time>2026-03-23T15:39:05.999Z</time></trkpt><trkpt lat="44.10053240019045" lon="9.934618527205938"><ele>9.0</ele><time>2026-03-23T15:39:07.999Z</time></trkpt><trkpt lat="44.100599481745306" lon="9.93458288954517"><ele>9.0</ele><time>2026-03-23T15:39:09.999Z</time></trkpt><trkpt lat="44.10066566087252" lon="9.934557299452514"><ele>9.0</ele><time>2026-03-23T15:39:14.999Z</time></trkpt><trkpt lat="44.10062565389148" lon="9.934411408805497"><ele>9.0</ele><time>2026-03-23T15:39:15.999Z</time></trkpt><trkpt lat="44.10055698079555" lon="9.934306334210342"><ele>9.0</ele><time>2026-03-23T15:39:17.999Z</time></trkpt><trkpt lat="44.10050766045427" lon="9.934171693472713"><ele>9.0</ele><time>2026-03-23T15:39:19.999Z</time></trkpt><trkpt lat="44.10043145168158" lon="9.934052682088458"><ele>9.0</ele><time>2026-03-23T15:39:21.999Z</time></trkpt><trkpt lat="44.10037198269241" lon="9.933925693571696"><ele>9.0</ele><time>2026-03-23T15:39:23.999Z</time></trkpt><trkpt lat="44.100309823066034" lon="9.93381768133796"><ele>9.0</ele><time>2026-03-23T15:39:25.999Z</time></trkpt><trkpt lat="44.100247029010156" lon="9.933702756208973"><ele>9.0</ele><time>2026-03-23T15:39:27.999Z</time></trkpt><trkpt lat="44.100204010430254" lon="9.933584282629845"><ele>9.0</ele><time>2026-03-23T15:39:29.999Z</time></trkpt><trkpt lat="44.100147360479774" lon="9.933474706662198"><ele>9.0</ele><time>2026-03-23T15:39:31.999Z</time></trkpt><trkpt lat="44.10010084590972" lon="9.933384735711293"><ele>9.0</ele><time>2026-03-23T15:39:33.999Z</time></trkpt><trkpt lat="44.10018171205658" lon="9.9333726673334"><ele>9.0</ele><time>2026-03-23T15:39:35.999Z</time></trkpt><trkpt lat="44.100263208707155" lon="9.933292408089144"><ele>9.0</ele><time>2026-03-23T15:39:37.999Z</time></trkpt><trkpt lat="44.100330092002665" lon="9.933198212456121"><ele>9.0</ele><time>2026-03-23T15:39:39.999Z</time></trkpt><trkpt lat="44.10040554290284" lon="9.933120195772357"><ele>9.0</ele><time>2026-03-23T15:39:41.999Z</time></trkpt><trkpt lat="44.100487179243665" lon="9.933063949659939"><ele>9.0</ele><time>2026-03-23T15:39:43.999Z</time></trkpt><trkpt lat="44.100544953734456" lon="9.933003066965245"><ele>9.0</ele><time>2026-03-23T15:39:45.999Z</time></trkpt><trkpt lat="44.10043481900292" lon="9.93271064481665"><ele>9.0</ele><time>2026-03-23T15:39:50.999Z</time></trkpt><trkpt lat="44.10037261805752" lon="9.932667942076655"><ele>9.0</ele><time>2026-03-23T15:39:52.999Z</time></trkpt><trkpt lat="44.100305022567944" lon="9.932703575017033"><ele>9.0</ele><time>2026-03-23T15:39:54.999Z</time></trkpt><trkpt lat="44.1002401061998" lon="9.932749521397051"><ele>9.0</ele><time>2026-03-23T15:39:56.999Z</time></trkpt><trkpt lat="44.10025941244766" lon="9.932631629400264"><ele>9.0</ele><time>2026-03-23T15:39:59.999Z</time></trkpt><trkpt lat="44.10032294343444" lon="9.932587659711972"><ele>9.0</ele><time>2026-03-23T15:40:01.999Z</time></trkpt><trkpt lat="44.10038919710641" lon="9.932538144805893"><ele>9.0</ele><time>2026-03-23T15:40:03.999Z</time></trkpt><trkpt lat="44.100630757866774" lon="9.932912648531172"><ele>10.0</ele><time>2026-03-23T15:40:04.999Z</time></trkpt><trkpt lat="44.10050770538049" lon="9.93219157779775"><ele>10.0</ele><time>2026-03-23T15:40:16.999Z</time></trkpt><trkpt lat="44.10044579668296" lon="9.93214180947153"><ele>10.0</ele><time>2026-03-23T15:40:18.999Z</time></trkpt><trkpt lat="44.10037438290568" lon="9.932046867254089"><ele>10.0</ele><time>2026-03-23T15:40:20.999Z</time></trkpt><trkpt lat="44.100351569679106" lon="9.931917425553802"><ele>10.0</ele><time>2026-03-23T15:40:22.999Z</time></trkpt><trkpt lat="44.10037765987822" lon="9.931797118975151"><ele>10.0</ele><time>2026-03-23T15:40:24.999Z</time></trkpt><trkpt lat="44.100417825313656" lon="9.931694488601327"><ele>10.0</ele><time>2026-03-23T15:40:26.999Z</time></trkpt><trkpt lat="44.100460198366626" lon="9.931595853119966"><ele>10.0</ele><time>2026-03-23T15:40:28.998Z</time></trkpt><trkpt lat="44.10050721071397" lon="9.931523682086793"><ele>10.0</ele><time>2026-03-23T15:40:30.998Z</time></trkpt><trkpt lat="44.10057930073927" lon="9.931475711178594"><ele>10.0</ele><time>2026-03-23T15:40:33.999Z</time></trkpt><trkpt lat="44.100645190243156" lon="9.931452945690577"><ele>10.0</ele><time>2026-03-23T15:40:35.999Z</time></trkpt><trkpt lat="44.10070959203302" lon="9.93142614212394"><ele>10.0</ele><time>2026-03-23T15:40:37.999Z</time></trkpt><trkpt lat="44.10077168503495" lon="9.9313957655843"><ele>10.0</ele><time>2026-03-23T15:40:39.999Z</time></trkpt><trkpt lat="44.10085339350764" lon="9.931336671254318"><ele>10.0</ele><time>2026-03-23T15:40:42.999Z</time></trkpt><trkpt lat="44.10093378145509" lon="9.93131612652471"><ele>10.0</ele><time>2026-03-23T15:40:45.999Z</time></trkpt><trkpt lat="44.100995940170485" lon="9.931295289746432"><ele>10.0</ele><time>2026-03-23T15:40:48.999Z</time></trkpt><trkpt lat="44.10093383594239" lon="9.931355488500328"><ele>10.0</ele><time>2026-03-23T15:40:53.999Z</time></trkpt><trkpt lat="44.10087914241175" lon="9.931403966709906"><ele>10.0</ele><time>2026-03-23T15:40:57.999Z</time></trkpt><trkpt lat="44.10080845366185" lon="9.931449769906218"><ele>10.0</ele><time>2026-03-23T15:41:01.999Z</time></trkpt><trkpt lat="44.10073776133947" lon="9.931490513163252"><ele>10.0</ele><time>2026-03-23T15:41:03.999Z</time></trkpt><trkpt lat="44.10065886458696" lon="9.93153780186057"><ele>10.0</ele><time>2026-03-23T15:41:05.999Z</time></trkpt><trkpt lat="44.10058962720035" lon="9.93158153980343"><ele>10.0</ele><time>2026-03-23T15:41:07.999Z</time></trkpt><trkpt lat="44.10052769897542" lon="9.931618830884359"><ele>10.0</ele><time>2026-03-23T15:41:10.999Z</time></trkpt><trkpt lat="44.10043089682825" lon="9.93144124409807"><ele>10.0</ele><time>2026-03-23T15:41:13.999Z</time></trkpt><trkpt lat="44.100364475496335" lon="9.931421843040305"><ele>10.0</ele><time>2026-03-23T15:41:15.999Z</time></trkpt><trkpt lat="44.100293407071796" lon="9.931382789891712"><ele>10.0</ele><time>2026-03-23T15:41:18.999Z</time></trkpt><trkpt lat="44.100244928722304" lon="9.93132531427739"><ele>10.0</ele><time>2026-03-23T15:41:33.999Z</time></trkpt><trkpt lat="44.10028801682419" lon="9.931192666938152"><ele>10.0</ele><time>2026-03-23T15:41:36.999Z</time></trkpt><trkpt lat="44.10033799617059" lon="9.931127697337569"><ele>10.0</ele><time>2026-03-23T15:41:39.999Z</time></trkpt><trkpt lat="44.10036033170884" lon="9.93101978669"><ele>10.0</ele><time>2026-03-23T15:41:43.999Z</time></trkpt><trkpt lat="44.10041471237518" lon="9.930972189358203"><ele>10.0</ele><time>2026-03-23T15:41:45.999Z</time></trkpt><trkpt lat="44.10045280490603" lon="9.930895282925144"><ele>10.0</ele><time>2026-03-23T15:41:47.999Z</time></trkpt><trkpt lat="44.100504756468574" lon="9.930790396022255"><ele>10.0</ele><time>2026-03-23T15:41:50.999Z</time></trkpt><trkpt lat="44.10052729178347" lon="9.93070821120213"><ele>10.0</ele><time>2026-03-23T15:41:52.999Z</time></trkpt><trkpt lat="44.10056797412637" lon="9.930640821574318"><ele>10.166666666666668</ele><time>2026-03-23T15:41:54.999Z</time></trkpt><trkpt lat="44.100601193392095" lon="9.930562447375253"><ele>10.333333333333334</ele><time>2026-03-23T15:41:56.999Z</time></trkpt><trkpt lat="44.100649311569555" lon="9.930458642416674"><ele>10.5</ele><time>2026-03-23T15:41:59.999Z</time></trkpt><trkpt lat="44.100710700687635" lon="9.930376624205223"><ele>10.666666666666666</ele><time>2026-03-23T15:42:02.999Z</time></trkpt><trkpt lat="44.10076165696617" lon="9.93027691885312"><ele>10.833333333333332</ele><time>2026-03-23T15:42:05.999Z</time></trkpt><trkpt lat="44.10081313029163" lon="9.930176201767189"><ele>11.0</ele><time>2026-03-23T15:42:08.999Z</time></trkpt><trkpt lat="44.10086491565482" lon="9.930074874147273"><ele>11.285714285714286</ele><time>2026-03-23T15:42:11.999Z</time></trkpt><trkpt lat="44.10090306153699" lon="9.930003194732064"><ele>11.571428571428571</ele><time>2026-03-23T15:42:13.999Z</time></trkpt><trkpt lat="44.10095112182896" lon="9.929915404852384"><ele>11.857142857142858</ele><time>2026-03-23T15:42:15.999Z</time></trkpt><trkpt lat="44.1009941277171" lon="9.92984344395583"><ele>12.142857142857142</ele><time>2026-03-23T15:42:17.999Z</time></trkpt><trkpt lat="44.10106406871293" lon="9.929752548470574"><ele>12.428571428571429</ele><time>2026-03-23T15:42:20.999Z</time></trkpt><trkpt lat="44.10111736871458" lon="9.929702177324849"><ele>12.714285714285714</ele><time>2026-03-23T15:42:22.999Z</time></trkpt><trkpt lat="44.10117935715379" lon="9.929671707753851"><ele>13.0</ele><time>2026-03-23T15:42:24.999Z</time></trkpt><trkpt lat="44.10125201088077" lon="9.929637604104554"><ele>13.0</ele><time>2026-03-23T15:42:26.999Z</time></trkpt><trkpt lat="44.101333600853415" lon="9.929568874002406"><ele>13.0</ele><time>2026-03-23T15:42:28.999Z</time></trkpt><trkpt lat="44.101413922328106" lon="9.929494953959479"><ele>13.0</ele><time>2026-03-23T15:42:30.999Z</time></trkpt><trkpt lat="44.1014597317806" lon="9.929374460090385"><ele>13.0</ele><time>2026-03-23T15:42:32.998Z</time></trkpt><trkpt lat="44.10150988154065" lon="9.929273372217915"><ele>13.0</ele><time>2026-03-23T15:42:34.998Z</time></trkpt><trkpt lat="44.10156873584424" lon="9.929195196553446"><ele>13.833333333333332</ele><time>2026-03-23T15:42:36.998Z</time></trkpt><trkpt lat="44.10164362187965" lon="9.929128600680352"><ele>14.666666666666666</ele><time>2026-03-23T15:42:38.999Z</time></trkpt><trkpt lat="44.101724678610644" lon="9.92909690115668"><ele>15.5</ele><time>2026-03-23T15:42:40.999Z</time></trkpt><trkpt lat="44.101811987223165" lon="9.929072399523927"><ele>16.333333333333332</ele><time>2026-03-23T15:42:42.999Z</time></trkpt><trkpt lat="44.10190010799071" lon="9.929058067760973"><ele>17.166666666666668</ele><time>2026-03-23T15:42:44.999Z</time></trkpt><trkpt lat="44.10198929363071" lon="9.929066534480768"><ele>18.0</ele><time>2026-03-23T15:42:46.999Z</time></trkpt><trkpt lat="44.10206950837745" lon="9.929083237441807"><ele>18.0</ele><time>2026-03-23T15:42:48.999Z</time></trkpt><trkpt lat="44.102133423422046" lon="9.929098677312329"><ele>18.0</ele><time>2026-03-23T15:42:50.999Z</time></trkpt><trkpt lat="44.10221170881997" lon="9.929117588629671"><ele>18.0</ele><time>2026-03-23T15:42:53.999Z</time></trkpt><trkpt lat="44.10232168615951" lon="9.928945556053261"><ele>18.0</ele><time>2026-03-23T15:42:57.999Z</time></trkpt><trkpt lat="44.10234443729288" lon="9.928859424104362"><ele>18.0</ele><time>2026-03-23T15:42:59.999Z</time></trkpt><trkpt lat="44.10236869725894" lon="9.928769052749535"><ele>18.0</ele><time>2026-03-23T15:43:01.999Z</time></trkpt><trkpt lat="44.102397111951774" lon="9.928689185035543"><ele>18.714285714285715</ele><time>2026-03-23T15:43:03.999Z</time></trkpt><trkpt lat="44.10242621717137" lon="9.928596999429365"><ele>19.42857142857143</ele><time>2026-03-23T15:43:05.999Z</time></trkpt><trkpt lat="44.10241710107879" lon="9.928481163842314"><ele>20.142857142857146</ele><time>2026-03-23T15:43:07.999Z</time></trkpt><trkpt lat="44.102397615839315" lon="9.928376504226032"><ele>20.857142857142858</ele><time>2026-03-23T15:43:09.999Z</time></trkpt><trkpt lat="44.10238118141761" lon="9.928289077176888"><ele>21.57142857142857</ele><time>2026-03-23T15:43:11.999Z</time></trkpt><trkpt lat="44.1024084573025" lon="9.928201639450332"><ele>22.28571428571429</ele><time>2026-03-23T15:43:14.999Z</time></trkpt><trkpt lat="44.10246922312974" lon="9.928156228540434"><ele>23.0</ele><time>2026-03-23T15:43:16.999Z</time></trkpt><trkpt lat="44.10254095089219" lon="9.928133600211666"><ele>23.714285714285715</ele><time>2026-03-23T15:43:18.999Z</time></trkpt><trkpt lat="44.10261496121686" lon="9.928017229972255"><ele>24.428571428571427</ele><time>2026-03-23T15:43:20.999Z</time></trkpt><trkpt lat="44.10267616272012" lon="9.927964239435678"><ele>25.142857142857142</ele><time>2026-03-23T15:43:23.999Z</time></trkpt><trkpt lat="44.10272998107755" lon="9.92790973314953"><ele>25.857142857142858</ele><time>2026-03-23T15:43:25.999Z</time></trkpt><trkpt lat="44.102783324778194" lon="9.927853820361921"><ele>26.57142857142857</ele><time>2026-03-23T15:43:27.999Z</time></trkpt><trkpt lat="44.10283369447177" lon="9.927798830704143"><ele>27.285714285714285</ele><time>2026-03-23T15:43:29.999Z</time></trkpt><trkpt lat="44.10288495178117" lon="9.927737462636726"><ele>28.0</ele><time>2026-03-23T15:43:31.999Z</time></trkpt><trkpt lat="44.102934130189446" lon="9.927673357573175"><ele>28.000000000000004</ele><time>2026-03-23T15:43:33.999Z</time></trkpt><trkpt lat="44.10298340644918" lon="9.92759758396175"><ele>28.0</ele><time>2026-03-23T15:43:35.999Z</time></trkpt><trkpt lat="44.10302381894814" lon="9.927519754352346"><ele>28.0</ele><time>2026-03-23T15:43:37.999Z</time></trkpt><trkpt lat="44.10307248549515" lon="9.927444843568262"><ele>28.0</ele><time>2026-03-23T15:43:40.999Z</time></trkpt><trkpt lat="44.10312307532093" lon="9.927365278989097"><ele>28.000000000000004</ele><time>2026-03-23T15:43:44.999Z</time></trkpt><trkpt lat="44.103127193526895" lon="9.92726490219169"><ele>28.0</ele><time>2026-03-23T15:43:47.999Z</time></trkpt><trkpt lat="44.103065906440165" lon="9.92717470788074"><ele>29.666666666666668</ele><time>2026-03-23T15:43:48.999Z</time></trkpt><trkpt lat="44.10301770117713" lon="9.92706984366772"><ele>31.333333333333336</ele><time>2026-03-23T15:43:52.999Z</time></trkpt><trkpt lat="44.10298012926843" lon="9.926986986014446"><ele>33.0</ele><time>2026-03-23T15:43:55.999Z</time></trkpt><trkpt lat="44.102948247844594" lon="9.92690352477757"><ele>34.666666666666664</ele><time>2026-03-23T15:43:58.999Z</time></trkpt><trkpt lat="44.102931818693364" lon="9.926814513944715"><ele>36.33333333333333</ele><time>2026-03-23T15:44:02.999Z</time></trkpt><trkpt lat="44.10295132161478" lon="9.926932205969685"><ele>38.0</ele><time>2026-03-23T15:45:16.999Z</time></trkpt><trkpt lat="44.10299580111268" lon="9.92702475695691"><ele>38.0</ele><time>2026-03-23T15:45:19.999Z</time></trkpt><trkpt lat="44.103037596599364" lon="9.927112941839896"><ele>38.0</ele><time>2026-03-23T15:45:21.999Z</time></trkpt><trkpt lat="44.103073816877234" lon="9.927192204546234"><ele>38.0</ele><time>2026-03-23T15:45:23.999Z</time></trkpt><trkpt lat="44.10311445014349" lon="9.927298619835959"><ele>38.0</ele><time>2026-03-23T15:45:26.999Z</time></trkpt><trkpt lat="44.10298694278584" lon="9.927453546184276"><ele>38.0</ele><time>2026-03-23T15:45:32.999Z</time></trkpt><trkpt lat="44.10293847209021" lon="9.92755303293801"><ele>36.0</ele><time>2026-03-23T15:45:34.999Z</time></trkpt><trkpt lat="44.10290598867708" lon="9.927642628561053"><ele>34.0</ele><time>2026-03-23T15:45:35.999Z</time></trkpt><trkpt lat="44.1028401169258" lon="9.927727003308235"><ele>31.999999999999996</ele><time>2026-03-23T15:45:37.999Z</time></trkpt><trkpt lat="44.102771060354144" lon="9.927802327695623"><ele>30.0</ele><time>2026-03-23T15:45:39.999Z</time></trkpt><trkpt lat="44.10270341270795" lon="9.927897910449225"><ele>28.0</ele><time>2026-03-23T15:45:41.999Z</time></trkpt><trkpt lat="44.102606204375846" lon="9.927972290381032"><ele>28.0</ele><time>2026-03-23T15:45:43.999Z</time></trkpt><trkpt lat="44.10253978194297" lon="9.928033258239976"><ele>27.999999999999996</ele><time>2026-03-23T15:45:44.999Z</time></trkpt><trkpt lat="44.10245498700688" lon="9.928147044282385"><ele>27.999999999999996</ele><time>2026-03-23T15:45:46.999Z</time></trkpt><trkpt lat="44.10236322747878" lon="9.92822611235126"><ele>28.0</ele><time>2026-03-23T15:45:48.999Z</time></trkpt><trkpt lat="44.102338539008436" lon="9.928319846624735"><ele>28.0</ele><time>2026-03-23T15:45:51.999Z</time></trkpt><trkpt lat="44.10236449691611" lon="9.928415720706894"><ele>26.333333333333336</ele><time>2026-03-23T15:45:53.999Z</time></trkpt><trkpt lat="44.10238180506672" lon="9.928526675862601"><ele>24.666666666666668</ele><time>2026-03-23T15:45:55.999Z</time></trkpt><trkpt lat="44.1023807115642" lon="9.92865132515596"><ele>23.0</ele><time>2026-03-23T15:45:57.999Z</time></trkpt><trkpt lat="44.10233416109104" lon="9.928775355318027"><ele>21.333333333333336</ele><time>2026-03-23T15:45:59.999Z</time></trkpt><trkpt lat="44.10230756912307" lon="9.92889056398484"><ele>19.666666666666668</ele><time>2026-03-23T15:46:01.999Z</time></trkpt><trkpt lat="44.102276595116436" lon="9.928984688190708"><ele>18.0</ele><time>2026-03-23T15:46:03.999Z</time></trkpt><trkpt lat="44.1022441715599" lon="9.929067295238264"><ele>18.0</ele><time>2026-03-23T15:46:05.999Z</time></trkpt><trkpt lat="44.10217956374453" lon="9.929105373629524"><ele>18.0</ele><time>2026-03-23T15:46:07.999Z</time></trkpt></trkseg></trk></gpx>